<?xml version="1.0" encoding="UTF-8"?>
<gpx version="1.1" creator="2bulu-scraper" xmlns="http://www.topografix.com/GPX/1/1">
  <metadata><name>泸州方山后山徒步1002</name><desc>source: 2bulu.com trackId=72698762; exported 2026-09-01T14:26:20.747Z</desc>
    <bounds minlat="28.820568" minlon="105.289887" maxlat="28.8329" maxlon="105.317375"/>
    <link href="https://www.2bulu.com/track/t-XgsyrnTKTtDp%252FR2KBg5Tzw%253D%253D.htm"><text>2bulu 源页面</text></link>
  </metadata>
  <wpt lat="28.8329" lon="105.290626"><ele>326</ele><name>导航至梨花村党群服务中心</name></wpt>
  <wpt lat="28.8329" lon="105.290626"><ele>326</ele><name>上山</name></wpt>
  <wpt lat="28.832452" lon="105.290908"><ele>331</ele><name>左转</name></wpt>
  <wpt lat="28.832725" lon="105.292105"><ele>350</ele><name>右转</name></wpt>
  <wpt lat="28.8328" lon="105.292919"><ele>368</ele><name>左转</name></wpt>
  <wpt lat="28.832575" lon="105.294575"><ele>404</ele><name>上山</name></wpt>
  <wpt lat="28.831296" lon="105.295253"><ele>446</ele><name>（埃菲尔铁塔🌲）风景点</name></wpt>
  <wpt lat="28.831167" lon="105.295843"><ele>475</ele><name>左转一直上山</name></wpt>
  <wpt lat="28.831335" lon="105.296941"><ele>523</ele><name></name></wpt>
  <wpt lat="28.830934" lon="105.299069"><ele>607</ele><name></name></wpt>
  <wpt lat="28.830387" lon="105.300148"><ele>614</ele><name></name></wpt>
  <wpt lat="28.830115" lon="105.300381"><ele>615</ele><name>认准蓝丝带</name></wpt>
  <wpt lat="28.827658" lon="105.302836"><ele>632</ele><name>右转</name></wpt>
  <wpt lat="28.825933" lon="105.304215"><ele>636</ele><name>左转</name></wpt>
  <wpt lat="28.827724" lon="105.308398"><ele>614</ele><name>右转</name></wpt>
  <wpt lat="28.827561" lon="105.310665"><ele>629</ele><name>双生树前右转</name></wpt>
  <wpt lat="28.826905" lon="105.310841"><ele>623</ele><name>这段有点野</name></wpt>
  <wpt lat="28.826233" lon="105.311103"><ele>606</ele><name>右转下山</name></wpt>
  <wpt lat="28.826128" lon="105.310864"><ele>601</ele><name>跟紧蓝丝带</name></wpt>
  <wpt lat="28.825749" lon="105.310358"><ele>578</ele><name></name></wpt>
  <wpt lat="28.825719" lon="105.31046"><ele>571</ele><name></name></wpt>
  <wpt lat="28.825513" lon="105.310355"><ele>546</ele><name></name></wpt>
  <wpt lat="28.825513" lon="105.310355"><ele>546</ele><name></name></wpt>
  <wpt lat="28.82546" lon="105.310755"><ele>540</ele><name></name></wpt>
  <wpt lat="28.825317" lon="105.311385"><ele>552</ele><name></name></wpt>
  <wpt lat="28.825204" lon="105.311564"><ele>546</ele><name></name></wpt>
  <wpt lat="28.825608" lon="105.312251"><ele>551</ele><name></name></wpt>
  <wpt lat="28.825569" lon="105.313009"><ele>537</ele><name></name></wpt>
  <wpt lat="28.825448" lon="105.313172"><ele>529</ele><name>直行</name></wpt>
  <wpt lat="28.825383" lon="105.313249"><ele>528</ele><name>经过人家右转小路出去</name></wpt>
  <wpt lat="28.82512" lon="105.314055"><ele>520</ele><name></name></wpt>
  <wpt lat="28.825115" lon="105.314165"><ele>518</ele><name></name></wpt>
  <wpt lat="28.825346" lon="105.314333"><ele>518</ele><name></name></wpt>
  <wpt lat="28.82553" lon="105.314315"><ele>521</ele><name>晾衣杆树杈</name></wpt>
  <wpt lat="28.826009" lon="105.314846"><ele>529</ele><name>缆车下，右转下山</name></wpt>
  <wpt lat="28.826247" lon="105.316159"><ele>504</ele><name></name></wpt>
  <wpt lat="28.826081" lon="105.316301"><ele>508</ele><name>下山</name></wpt>
  <wpt lat="28.82605" lon="105.316399"><ele>484</ele><name></name></wpt>
  <wpt lat="28.82549" lon="105.316925"><ele>467</ele><name>继续往下</name></wpt>
  <wpt lat="28.825066" lon="105.317344"><ele>449</ele><name>右转</name></wpt>
  <wpt lat="28.824015" lon="105.316236"><ele>462</ele><name></name></wpt>
  <wpt lat="28.823091" lon="105.312732"><ele>419</ele><name></name></wpt>
  <wpt lat="28.822809" lon="105.312318"><ele>412</ele><name>左转</name></wpt>
  <wpt lat="28.821921" lon="105.312469"><ele>421</ele><name></name></wpt>
  <wpt lat="28.821621" lon="105.312847"><ele>421</ele><name></name></wpt>
  <wpt lat="28.821621" lon="105.312847"><ele>421</ele><name>直行</name></wpt>
  <wpt lat="28.821281" lon="105.312965"><ele>422</ele><name>直行</name></wpt>
  <wpt lat="28.820661" lon="105.31321"><ele>425</ele><name>右转</name></wpt>
  <wpt lat="28.822113" lon="105.310386"><ele>491</ele><name>左转</name></wpt>
  <wpt lat="28.821444" lon="105.308861"><ele>520</ele><name></name></wpt>
  <wpt lat="28.821739" lon="105.308569"><ele>528</ele><name></name></wpt>
  <wpt lat="28.821826" lon="105.307121"><ele>548</ele><name></name></wpt>
  <wpt lat="28.82271" lon="105.298784"><ele>516</ele><name></name></wpt>
  <wpt lat="28.82321" lon="105.2983"><ele>506</ele><name>摸黑撤退，下次见</name></wpt>
  <wpt lat="28.825447" lon="105.291057"><ele>371</ele><name></name></wpt>
  <wpt lat="28.827876" lon="105.293367"><ele>324</ele><name>记录在案1次！</name></wpt>
  <trk><name>泸州方山后山徒步1002</name>
      <trkseg>
        <trkpt lat="28.8329" lon="105.290626"><ele>326</ele><time>2025-10-01T22:51:36.000Z</time></trkpt>
        <trkpt lat="28.832888" lon="105.29074"><ele>328</ele><time>2025-10-01T22:51:49.000Z</time></trkpt>
        <trkpt lat="28.832811" lon="105.290814"><ele>330</ele><time>2025-10-01T22:52:01.000Z</time></trkpt>
        <trkpt lat="28.832718" lon="105.290829"><ele>331</ele><time>2025-10-01T22:52:14.000Z</time></trkpt>
        <trkpt lat="28.832629" lon="105.29085"><ele>331</ele><time>2025-10-01T22:52:27.000Z</time></trkpt>
        <trkpt lat="28.832537" lon="105.290867"><ele>331</ele><time>2025-10-01T22:52:38.000Z</time></trkpt>
        <trkpt lat="28.832452" lon="105.290908"><ele>331</ele><time>2025-10-01T22:52:50.000Z</time></trkpt>
        <trkpt lat="28.832377" lon="105.290968"><ele>332</ele><time>2025-10-01T22:53:01.000Z</time></trkpt>
        <trkpt lat="28.83231" lon="105.29105"><ele>332</ele><time>2025-10-01T22:53:13.000Z</time></trkpt>
        <trkpt lat="28.832309" lon="105.29116"><ele>333</ele><time>2025-10-01T22:53:25.000Z</time></trkpt>
        <trkpt lat="28.832308" lon="105.291268"><ele>335</ele><time>2025-10-01T22:53:36.000Z</time></trkpt>
        <trkpt lat="28.832326" lon="105.291375"><ele>337</ele><time>2025-10-01T22:53:49.000Z</time></trkpt>
        <trkpt lat="28.832357" lon="105.291475"><ele>338</ele><time>2025-10-01T22:54:01.000Z</time></trkpt>
        <trkpt lat="28.832422" lon="105.291553"><ele>340</ele><time>2025-10-01T22:54:14.000Z</time></trkpt>
        <trkpt lat="28.832485" lon="105.291632"><ele>341</ele><time>2025-10-01T22:54:28.000Z</time></trkpt>
        <trkpt lat="28.832553" lon="105.2917"><ele>342</ele><time>2025-10-01T22:54:43.000Z</time></trkpt>
        <trkpt lat="28.832633" lon="105.291763"><ele>344</ele><time>2025-10-01T22:54:59.000Z</time></trkpt>
        <trkpt lat="28.832724" lon="105.291806"><ele>344</ele><time>2025-10-01T22:55:18.000Z</time></trkpt>
        <trkpt lat="28.832773" lon="105.291897"><ele>346</ele><time>2025-10-01T22:55:35.000Z</time></trkpt>
        <trkpt lat="28.832766" lon="105.292002"><ele>348</ele><time>2025-10-01T22:55:47.000Z</time></trkpt>
        <trkpt lat="28.832725" lon="105.292105"><ele>350</ele><time>2025-10-01T22:56:09.000Z</time></trkpt>
        <trkpt lat="28.832692" lon="105.292207"><ele>351</ele><time>2025-10-01T22:56:29.000Z</time></trkpt>
        <trkpt lat="28.832601" lon="105.292242"><ele>353</ele><time>2025-10-01T22:56:44.000Z</time></trkpt>
        <trkpt lat="28.83252" lon="105.292189"><ele>353</ele><time>2025-10-01T22:56:57.000Z</time></trkpt>
        <trkpt lat="28.832432" lon="105.292161"><ele>352</ele><time>2025-10-01T22:57:10.000Z</time></trkpt>
        <trkpt lat="28.83235" lon="105.292219"><ele>353</ele><time>2025-10-01T22:57:27.000Z</time></trkpt>
        <trkpt lat="28.832294" lon="105.2923"><ele>355</ele><time>2025-10-01T22:57:43.000Z</time></trkpt>
        <trkpt lat="28.832347" lon="105.292395"><ele>358</ele><time>2025-10-01T22:58:22.000Z</time></trkpt>
        <trkpt lat="28.832423" lon="105.29246"><ele>360</ele><time>2025-10-01T22:58:34.000Z</time></trkpt>
        <trkpt lat="28.832471" lon="105.292548"><ele>361</ele><time>2025-10-01T22:58:51.000Z</time></trkpt>
        <trkpt lat="28.832537" lon="105.292619"><ele>363</ele><time>2025-10-01T23:00:59.000Z</time></trkpt>
        <trkpt lat="28.832598" lon="105.292701"><ele>364</ele><time>2025-10-01T23:01:31.000Z</time></trkpt>
        <trkpt lat="28.832679" lon="105.292766"><ele>365</ele><time>2025-10-01T23:02:14.000Z</time></trkpt>
        <trkpt lat="28.832755" lon="105.292826"><ele>365</ele><time>2025-10-01T23:02:50.000Z</time></trkpt>
        <trkpt lat="28.8328" lon="105.292919"><ele>368</ele><time>2025-10-01T23:03:18.000Z</time></trkpt>
        <trkpt lat="28.832822" lon="105.29302"><ele>371</ele><time>2025-10-01T23:03:42.000Z</time></trkpt>
        <trkpt lat="28.832779" lon="105.293113"><ele>374</ele><time>2025-10-01T23:04:03.000Z</time></trkpt>
        <trkpt lat="28.832685" lon="105.293122"><ele>375</ele><time>2025-10-01T23:04:21.000Z</time></trkpt>
        <trkpt lat="28.832608" lon="105.293188"><ele>376</ele><time>2025-10-01T23:04:33.000Z</time></trkpt>
        <trkpt lat="28.832557" lon="105.293275"><ele>377</ele><time>2025-10-01T23:04:45.000Z</time></trkpt>
        <trkpt lat="28.832508" lon="105.293363"><ele>378</ele><time>2025-10-01T23:04:55.000Z</time></trkpt>
        <trkpt lat="28.83251" lon="105.293469"><ele>380</ele><time>2025-10-01T23:05:10.000Z</time></trkpt>
        <trkpt lat="28.832491" lon="105.293573"><ele>380</ele><time>2025-10-01T23:05:24.000Z</time></trkpt>
        <trkpt lat="28.832491" lon="105.293678"><ele>382</ele><time>2025-10-01T23:05:38.000Z</time></trkpt>
        <trkpt lat="28.832545" lon="105.293765"><ele>384</ele><time>2025-10-01T23:05:56.000Z</time></trkpt>
        <trkpt lat="28.832581" lon="105.293864"><ele>385</ele><time>2025-10-01T23:06:10.000Z</time></trkpt>
        <trkpt lat="28.832641" lon="105.293955"><ele>388</ele><time>2025-10-01T23:06:25.000Z</time></trkpt>
        <trkpt lat="28.832642" lon="105.294059"><ele>390</ele><time>2025-10-01T23:06:43.000Z</time></trkpt>
        <trkpt lat="28.832622" lon="105.294165"><ele>391</ele><time>2025-10-01T23:06:58.000Z</time></trkpt>
        <trkpt lat="28.832631" lon="105.294269"><ele>395</ele><time>2025-10-01T23:07:13.000Z</time></trkpt>
        <trkpt lat="28.832639" lon="105.294378"><ele>399</ele><time>2025-10-01T23:07:29.000Z</time></trkpt>
        <trkpt lat="28.832611" lon="105.294476"><ele>402</ele><time>2025-10-01T23:07:52.000Z</time></trkpt>
        <trkpt lat="28.832575" lon="105.294575"><ele>404</ele><time>2025-10-01T23:08:03.000Z</time></trkpt>
        <trkpt lat="28.832501" lon="105.294647"><ele>406</ele><time>2025-10-01T23:08:20.000Z</time></trkpt>
        <trkpt lat="28.832416" lon="105.29469"><ele>408</ele><time>2025-10-01T23:08:47.000Z</time></trkpt>
        <trkpt lat="28.832336" lon="105.29474"><ele>410</ele><time>2025-10-01T23:09:20.000Z</time></trkpt>
        <trkpt lat="28.832265" lon="105.294824"><ele>413</ele><time>2025-10-01T23:09:37.000Z</time></trkpt>
        <trkpt lat="28.8322" lon="105.294898"><ele>416</ele><time>2025-10-01T23:10:00.000Z</time></trkpt>
        <trkpt lat="28.832141" lon="105.294983"><ele>420</ele><time>2025-10-01T23:10:42.000Z</time></trkpt>
        <trkpt lat="28.832047" lon="105.294987"><ele>423</ele><time>2025-10-01T23:11:03.000Z</time></trkpt>
        <trkpt lat="28.831958" lon="105.295024"><ele>425</ele><time>2025-10-01T23:11:19.000Z</time></trkpt>
        <trkpt lat="28.831867" lon="105.295034"><ele>429</ele><time>2025-10-01T23:11:41.000Z</time></trkpt>
        <trkpt lat="28.831777" lon="105.295063"><ele>431</ele><time>2025-10-01T23:12:06.000Z</time></trkpt>
        <trkpt lat="28.831686" lon="105.295032"><ele>432</ele><time>2025-10-01T23:12:31.000Z</time></trkpt>
        <trkpt lat="28.831591" lon="105.295024"><ele>433</ele><time>2025-10-01T23:12:46.000Z</time></trkpt>
        <trkpt lat="28.831518" lon="105.295091"><ele>436</ele><time>2025-10-01T23:13:07.000Z</time></trkpt>
        <trkpt lat="28.831429" lon="105.295113"><ele>440</ele><time>2025-10-01T23:13:26.000Z</time></trkpt>
        <trkpt lat="28.831349" lon="105.295167"><ele>442</ele><time>2025-10-01T23:14:08.000Z</time></trkpt>
        <trkpt lat="28.831296" lon="105.295253"><ele>446</ele><time>2025-10-01T23:14:38.000Z</time></trkpt>
        <trkpt lat="28.831303" lon="105.295359"><ele>449</ele><time>2025-10-01T23:15:07.000Z</time></trkpt>
        <trkpt lat="28.831236" lon="105.295285"><ele>462</ele><time>2025-10-01T23:16:39.000Z</time></trkpt>
        <trkpt lat="28.831183" lon="105.295373"><ele>463</ele><time>2025-10-01T23:16:59.000Z</time></trkpt>
        <trkpt lat="28.831089" lon="105.295382"><ele>458</ele><time>2025-10-01T23:17:24.000Z</time></trkpt>
        <trkpt lat="28.831001" lon="105.295409"><ele>457</ele><time>2025-10-01T23:17:43.000Z</time></trkpt>
        <trkpt lat="28.830917" lon="105.295456"><ele>456</ele><time>2025-10-01T23:18:06.000Z</time></trkpt>
        <trkpt lat="28.830835" lon="105.295511"><ele>458</ele><time>2025-10-01T23:18:39.000Z</time></trkpt>
        <trkpt lat="28.830904" lon="105.29558"><ele>462</ele><time>2025-10-01T23:19:57.000Z</time></trkpt>
        <trkpt lat="28.83099" lon="105.295613"><ele>465</ele><time>2025-10-01T23:20:25.000Z</time></trkpt>
        <trkpt lat="28.831063" lon="105.295673"><ele>468</ele><time>2025-10-01T23:20:49.000Z</time></trkpt>
        <trkpt lat="28.831134" lon="105.295742"><ele>471</ele><time>2025-10-01T23:21:19.000Z</time></trkpt>
        <trkpt lat="28.831167" lon="105.295843"><ele>475</ele><time>2025-10-01T23:21:43.000Z</time></trkpt>
        <trkpt lat="28.831075" lon="105.295862"><ele>474</ele><time>2025-10-01T23:23:21.000Z</time></trkpt>
        <trkpt lat="28.831076" lon="105.295966"><ele>477</ele><time>2025-10-01T23:24:15.000Z</time></trkpt>
        <trkpt lat="28.831089" lon="105.296068"><ele>478</ele><time>2025-10-01T23:24:38.000Z</time></trkpt>
        <trkpt lat="28.831097" lon="105.296174"><ele>481</ele><time>2025-10-01T23:25:19.000Z</time></trkpt>
        <trkpt lat="28.831122" lon="105.296276"><ele>485</ele><time>2025-10-01T23:25:42.000Z</time></trkpt>
        <trkpt lat="28.831211" lon="105.296306"><ele>487</ele><time>2025-10-01T23:26:02.000Z</time></trkpt>
        <trkpt lat="28.831216" lon="105.296413"><ele>490</ele><time>2025-10-01T23:26:35.000Z</time></trkpt>
        <trkpt lat="28.831145" lon="105.296477"><ele>495</ele><time>2025-10-01T23:26:59.000Z</time></trkpt>
        <trkpt lat="28.831126" lon="105.296578"><ele>502</ele><time>2025-10-01T23:27:41.000Z</time></trkpt>
        <trkpt lat="28.831084" lon="105.29667"><ele>508</ele><time>2025-10-01T23:28:24.000Z</time></trkpt>
        <trkpt lat="28.831151" lon="105.296598"><ele>507</ele><time>2025-10-01T23:32:19.000Z</time></trkpt>
        <trkpt lat="28.831194" lon="105.29669"><ele>508</ele><time>2025-10-01T23:32:50.000Z</time></trkpt>
        <trkpt lat="28.831207" lon="105.296793"><ele>514</ele><time>2025-10-01T23:34:11.000Z</time></trkpt>
        <trkpt lat="28.831273" lon="105.296865"><ele>518</ele><time>2025-10-01T23:34:36.000Z</time></trkpt>
        <trkpt lat="28.831335" lon="105.296941"><ele>523</ele><time>2025-10-01T23:35:04.000Z</time></trkpt>
        <trkpt lat="28.831435" lon="105.296971"><ele>524</ele><time>2025-10-01T23:36:12.000Z</time></trkpt>
        <trkpt lat="28.831475" lon="105.297063"><ele>528</ele><time>2025-10-01T23:36:33.000Z</time></trkpt>
        <trkpt lat="28.831509" lon="105.297162"><ele>531</ele><time>2025-10-01T23:38:40.000Z</time></trkpt>
        <trkpt lat="28.831545" lon="105.297259"><ele>539</ele><time>2025-10-01T23:39:32.000Z</time></trkpt>
        <trkpt lat="28.831534" lon="105.297372"><ele>540</ele><time>2025-10-01T23:43:45.000Z</time></trkpt>
        <trkpt lat="28.831502" lon="105.297477"><ele>549</ele><time>2025-10-01T23:45:48.000Z</time></trkpt>
        <trkpt lat="28.831516" lon="105.297582"><ele>556</ele><time>2025-10-01T23:46:39.000Z</time></trkpt>
        <trkpt lat="28.831583" lon="105.297657"><ele>563</ele><time>2025-10-01T23:47:14.000Z</time></trkpt>
        <trkpt lat="28.831534" lon="105.297782"><ele>566</ele><time>2025-10-01T23:49:03.000Z</time></trkpt>
        <trkpt lat="28.831443" lon="105.297793"><ele>572</ele><time>2025-10-01T23:49:55.000Z</time></trkpt>
        <trkpt lat="28.831384" lon="105.297875"><ele>572</ele><time>2025-10-01T23:50:18.000Z</time></trkpt>
        <trkpt lat="28.831361" lon="105.297978"><ele>576</ele><time>2025-10-01T23:50:45.000Z</time></trkpt>
        <trkpt lat="28.831332" lon="105.298082"><ele>580</ele><time>2025-10-01T23:51:30.000Z</time></trkpt>
        <trkpt lat="28.83137" lon="105.29818"><ele>585</ele><time>2025-10-01T23:54:17.000Z</time></trkpt>
        <trkpt lat="28.831359" lon="105.298282"><ele>587</ele><time>2025-10-01T23:59:34.000Z</time></trkpt>
        <trkpt lat="28.831311" lon="105.298379"><ele>586</ele><time>2025-10-02T00:00:06.000Z</time></trkpt>
        <trkpt lat="28.831309" lon="105.298488"><ele>588</ele><time>2025-10-02T00:00:56.000Z</time></trkpt>
        <trkpt lat="28.831254" lon="105.298576"><ele>589</ele><time>2025-10-02T00:01:27.000Z</time></trkpt>
        <trkpt lat="28.831222" lon="105.298673"><ele>591</ele><time>2025-10-02T00:01:51.000Z</time></trkpt>
        <trkpt lat="28.831191" lon="105.298773"><ele>593</ele><time>2025-10-02T00:02:12.000Z</time></trkpt>
        <trkpt lat="28.831132" lon="105.298858"><ele>597</ele><time>2025-10-02T00:02:31.000Z</time></trkpt>
        <trkpt lat="28.831068" lon="105.298931"><ele>603</ele><time>2025-10-02T00:02:52.000Z</time></trkpt>
        <trkpt lat="28.830993" lon="105.298989"><ele>605</ele><time>2025-10-02T00:03:09.000Z</time></trkpt>
        <trkpt lat="28.830934" lon="105.299069"><ele>607</ele><time>2025-10-02T00:03:33.000Z</time></trkpt>
        <trkpt lat="28.830856" lon="105.299121"><ele>608</ele><time>2025-10-02T00:03:47.000Z</time></trkpt>
        <trkpt lat="28.830762" lon="105.299156"><ele>610</ele><time>2025-10-02T00:03:57.000Z</time></trkpt>
        <trkpt lat="28.830674" lon="105.299196"><ele>609</ele><time>2025-10-02T00:04:07.000Z</time></trkpt>
        <trkpt lat="28.830605" lon="105.299271"><ele>608</ele><time>2025-10-02T00:04:18.000Z</time></trkpt>
        <trkpt lat="28.830534" lon="105.299356"><ele>608</ele><time>2025-10-02T00:04:31.000Z</time></trkpt>
        <trkpt lat="28.830464" lon="105.299436"><ele>607</ele><time>2025-10-02T00:04:50.000Z</time></trkpt>
        <trkpt lat="28.830483" lon="105.299537"><ele>609</ele><time>2025-10-02T00:05:06.000Z</time></trkpt>
        <trkpt lat="28.830495" lon="105.29964"><ele>610</ele><time>2025-10-02T00:05:25.000Z</time></trkpt>
        <trkpt lat="28.830471" lon="105.29974"><ele>611</ele><time>2025-10-02T00:05:35.000Z</time></trkpt>
        <trkpt lat="28.830457" lon="105.299842"><ele>612</ele><time>2025-10-02T00:05:43.000Z</time></trkpt>
        <trkpt lat="28.830431" lon="105.29994"><ele>614</ele><time>2025-10-02T00:05:59.000Z</time></trkpt>
        <trkpt lat="28.830388" lon="105.300039"><ele>614</ele><time>2025-10-02T00:06:12.000Z</time></trkpt>
        <trkpt lat="28.830387" lon="105.300148"><ele>614</ele><time>2025-10-02T00:06:23.000Z</time></trkpt>
        <trkpt lat="28.830361" lon="105.300255"><ele>614</ele><time>2025-10-02T00:06:41.000Z</time></trkpt>
        <trkpt lat="28.83029" lon="105.300323"><ele>614</ele><time>2025-10-02T00:07:29.000Z</time></trkpt>
        <trkpt lat="28.830202" lon="105.300352"><ele>614</ele><time>2025-10-02T00:07:51.000Z</time></trkpt>
        <trkpt lat="28.830115" lon="105.300381"><ele>615</ele><time>2025-10-02T00:08:12.000Z</time></trkpt>
        <trkpt lat="28.830064" lon="105.300471"><ele>616</ele><time>2025-10-02T00:08:42.000Z</time></trkpt>
        <trkpt lat="28.830001" lon="105.300552"><ele>619</ele><time>2025-10-02T00:09:23.000Z</time></trkpt>
        <trkpt lat="28.829929" lon="105.300614"><ele>620</ele><time>2025-10-02T00:09:38.000Z</time></trkpt>
        <trkpt lat="28.829849" lon="105.300668"><ele>621</ele><time>2025-10-02T00:09:57.000Z</time></trkpt>
        <trkpt lat="28.829762" lon="105.300718"><ele>622</ele><time>2025-10-02T00:10:10.000Z</time></trkpt>
        <trkpt lat="28.829678" lon="105.300766"><ele>622</ele><time>2025-10-02T00:10:33.000Z</time></trkpt>
        <trkpt lat="28.829606" lon="105.300829"><ele>622</ele><time>2025-10-02T00:10:48.000Z</time></trkpt>
        <trkpt lat="28.829538" lon="105.300905"><ele>621</ele><time>2025-10-02T00:11:05.000Z</time></trkpt>
        <trkpt lat="28.829486" lon="105.300992"><ele>621</ele><time>2025-10-02T00:11:30.000Z</time></trkpt>
        <trkpt lat="28.829395" lon="105.301014"><ele>620</ele><time>2025-10-02T00:11:46.000Z</time></trkpt>
        <trkpt lat="28.829305" lon="105.301059"><ele>620</ele><time>2025-10-02T00:12:00.000Z</time></trkpt>
        <trkpt lat="28.82923" lon="105.30112"><ele>620</ele><time>2025-10-02T00:12:17.000Z</time></trkpt>
        <trkpt lat="28.829155" lon="105.301182"><ele>620</ele><time>2025-10-02T00:12:31.000Z</time></trkpt>
        <trkpt lat="28.82908" lon="105.30124"><ele>620</ele><time>2025-10-02T00:12:42.000Z</time></trkpt>
        <trkpt lat="28.829" lon="105.301303"><ele>620</ele><time>2025-10-02T00:13:00.000Z</time></trkpt>
        <trkpt lat="28.828921" lon="105.30136"><ele>621</ele><time>2025-10-02T00:13:35.000Z</time></trkpt>
        <trkpt lat="28.828844" lon="105.301302"><ele>620</ele><time>2025-10-02T00:14:15.000Z</time></trkpt>
        <trkpt lat="28.828751" lon="105.301299"><ele>619</ele><time>2025-10-02T00:14:32.000Z</time></trkpt>
        <trkpt lat="28.82866" lon="105.301318"><ele>619</ele><time>2025-10-02T00:14:49.000Z</time></trkpt>
        <trkpt lat="28.828573" lon="105.301284"><ele>618</ele><time>2025-10-02T00:15:11.000Z</time></trkpt>
        <trkpt lat="28.828493" lon="105.301334"><ele>619</ele><time>2025-10-02T00:15:41.000Z</time></trkpt>
        <trkpt lat="28.828449" lon="105.301431"><ele>621</ele><time>2025-10-02T00:15:58.000Z</time></trkpt>
        <trkpt lat="28.828433" lon="105.301536"><ele>621</ele><time>2025-10-02T00:16:13.000Z</time></trkpt>
        <trkpt lat="28.828447" lon="105.301644"><ele>622</ele><time>2025-10-02T00:16:26.000Z</time></trkpt>
        <trkpt lat="28.828463" lon="105.301751"><ele>627</ele><time>2025-10-02T00:16:37.000Z</time></trkpt>
        <trkpt lat="28.828386" lon="105.301806"><ele>628</ele><time>2025-10-02T00:16:52.000Z</time></trkpt>
        <trkpt lat="28.828311" lon="105.301863"><ele>629</ele><time>2025-10-02T00:17:12.000Z</time></trkpt>
        <trkpt lat="28.828223" lon="105.301908"><ele>629</ele><time>2025-10-02T00:17:29.000Z</time></trkpt>
        <trkpt lat="28.828136" lon="105.301945"><ele>630</ele><time>2025-10-02T00:17:49.000Z</time></trkpt>
        <trkpt lat="28.828076" lon="105.302024"><ele>630</ele><time>2025-10-02T00:18:22.000Z</time></trkpt>
        <trkpt lat="28.828048" lon="105.302126"><ele>630</ele><time>2025-10-02T00:18:37.000Z</time></trkpt>
        <trkpt lat="28.828046" lon="105.302231"><ele>630</ele><time>2025-10-02T00:18:48.000Z</time></trkpt>
        <trkpt lat="28.828082" lon="105.302337"><ele>630</ele><time>2025-10-02T00:19:04.000Z</time></trkpt>
        <trkpt lat="28.828143" lon="105.302427"><ele>631</ele><time>2025-10-02T00:19:17.000Z</time></trkpt>
        <trkpt lat="28.828203" lon="105.302505"><ele>631</ele><time>2025-10-02T00:19:32.000Z</time></trkpt>
        <trkpt lat="28.828283" lon="105.302568"><ele>630</ele><time>2025-10-02T00:19:49.000Z</time></trkpt>
        <trkpt lat="28.828331" lon="105.302657"><ele>630</ele><time>2025-10-02T00:20:07.000Z</time></trkpt>
        <trkpt lat="28.828297" lon="105.302756"><ele>630</ele><time>2025-10-02T00:20:26.000Z</time></trkpt>
        <trkpt lat="28.828205" lon="105.302794"><ele>630</ele><time>2025-10-02T00:20:38.000Z</time></trkpt>
        <trkpt lat="28.828116" lon="105.302819"><ele>630</ele><time>2025-10-02T00:20:53.000Z</time></trkpt>
        <trkpt lat="28.828042" lon="105.302885"><ele>630</ele><time>2025-10-02T00:21:06.000Z</time></trkpt>
        <trkpt lat="28.827948" lon="105.302884"><ele>632</ele><time>2025-10-02T00:21:18.000Z</time></trkpt>
        <trkpt lat="28.827851" lon="105.302874"><ele>632</ele><time>2025-10-02T00:21:34.000Z</time></trkpt>
        <trkpt lat="28.827759" lon="105.302864"><ele>634</ele><time>2025-10-02T00:21:44.000Z</time></trkpt>
        <trkpt lat="28.827658" lon="105.302836"><ele>632</ele><time>2025-10-02T00:22:12.000Z</time></trkpt>
        <trkpt lat="28.827568" lon="105.302825"><ele>631</ele><time>2025-10-02T00:22:23.000Z</time></trkpt>
        <trkpt lat="28.827585" lon="105.302929"><ele>630</ele><time>2025-10-02T00:22:46.000Z</time></trkpt>
        <trkpt lat="28.827605" lon="105.303036"><ele>629</ele><time>2025-10-02T00:23:02.000Z</time></trkpt>
        <trkpt lat="28.827608" lon="105.303149"><ele>627</ele><time>2025-10-02T00:23:16.000Z</time></trkpt>
        <trkpt lat="28.827624" lon="105.303265"><ele>625</ele><time>2025-10-02T00:23:26.000Z</time></trkpt>
        <trkpt lat="28.827661" lon="105.303359"><ele>623</ele><time>2025-10-02T00:23:33.000Z</time></trkpt>
        <trkpt lat="28.827753" lon="105.303405"><ele>620</ele><time>2025-10-02T00:23:45.000Z</time></trkpt>
        <trkpt lat="28.827843" lon="105.303417"><ele>619</ele><time>2025-10-02T00:23:58.000Z</time></trkpt>
        <trkpt lat="28.827942" lon="105.30342"><ele>619</ele><time>2025-10-02T00:24:08.000Z</time></trkpt>
        <trkpt lat="28.82803" lon="105.303389"><ele>620</ele><time>2025-10-02T00:24:16.000Z</time></trkpt>
        <trkpt lat="28.828102" lon="105.303324"><ele>622</ele><time>2025-10-02T00:24:25.000Z</time></trkpt>
        <trkpt lat="28.827922" lon="105.303352"><ele>621</ele><time>2025-10-02T00:26:06.000Z</time></trkpt>
        <trkpt lat="28.827832" lon="105.303312"><ele>621</ele><time>2025-10-02T00:26:17.000Z</time></trkpt>
        <trkpt lat="28.827743" lon="105.303291"><ele>621</ele><time>2025-10-02T00:26:27.000Z</time></trkpt>
        <trkpt lat="28.82766" lon="105.303242"><ele>623</ele><time>2025-10-02T00:26:40.000Z</time></trkpt>
        <trkpt lat="28.827634" lon="105.303142"><ele>627</ele><time>2025-10-02T00:26:53.000Z</time></trkpt>
        <trkpt lat="28.827663" lon="105.303041"><ele>631</ele><time>2025-10-02T00:27:08.000Z</time></trkpt>
        <trkpt lat="28.827633" lon="105.302942"><ele>632</ele><time>2025-10-02T00:27:25.000Z</time></trkpt>
        <trkpt lat="28.82758" lon="105.302851"><ele>631</ele><time>2025-10-02T00:27:35.000Z</time></trkpt>
        <trkpt lat="28.827515" lon="105.302772"><ele>631</ele><time>2025-10-02T00:27:44.000Z</time></trkpt>
        <trkpt lat="28.827436" lon="105.302699"><ele>629</ele><time>2025-10-02T00:27:58.000Z</time></trkpt>
        <trkpt lat="28.827353" lon="105.302641"><ele>629</ele><time>2025-10-02T00:28:11.000Z</time></trkpt>
        <trkpt lat="28.82727" lon="105.302585"><ele>629</ele><time>2025-10-02T00:28:22.000Z</time></trkpt>
        <trkpt lat="28.827183" lon="105.302537"><ele>629</ele><time>2025-10-02T00:28:34.000Z</time></trkpt>
        <trkpt lat="28.827094" lon="105.302519"><ele>630</ele><time>2025-10-02T00:28:48.000Z</time></trkpt>
        <trkpt lat="28.826997" lon="105.302489"><ele>632</ele><time>2025-10-02T00:28:59.000Z</time></trkpt>
        <trkpt lat="28.826896" lon="105.302473"><ele>632</ele><time>2025-10-02T00:29:09.000Z</time></trkpt>
        <trkpt lat="28.826803" lon="105.302512"><ele>632</ele><time>2025-10-02T00:29:23.000Z</time></trkpt>
        <trkpt lat="28.826711" lon="105.302551"><ele>633</ele><time>2025-10-02T00:29:32.000Z</time></trkpt>
        <trkpt lat="28.82666" lon="105.302636"><ele>632</ele><time>2025-10-02T00:29:40.000Z</time></trkpt>
        <trkpt lat="28.826626" lon="105.302748"><ele>632</ele><time>2025-10-02T00:29:49.000Z</time></trkpt>
        <trkpt lat="28.826596" lon="105.302846"><ele>631</ele><time>2025-10-02T00:29:58.000Z</time></trkpt>
        <trkpt lat="28.826566" lon="105.302944"><ele>630</ele><time>2025-10-02T00:30:07.000Z</time></trkpt>
        <trkpt lat="28.82652" lon="105.30304"><ele>629</ele><time>2025-10-02T00:30:16.000Z</time></trkpt>
        <trkpt lat="28.826502" lon="105.303147"><ele>627</ele><time>2025-10-02T00:30:24.000Z</time></trkpt>
        <trkpt lat="28.82649" lon="105.303249"><ele>626</ele><time>2025-10-02T00:30:30.000Z</time></trkpt>
        <trkpt lat="28.826504" lon="105.30336"><ele>625</ele><time>2025-10-02T00:30:38.000Z</time></trkpt>
        <trkpt lat="28.826512" lon="105.303465"><ele>627</ele><time>2025-10-02T00:31:10.000Z</time></trkpt>
        <trkpt lat="28.826495" lon="105.303565"><ele>629</ele><time>2025-10-02T00:31:32.000Z</time></trkpt>
        <trkpt lat="28.826485" lon="105.303669"><ele>631</ele><time>2025-10-02T00:31:47.000Z</time></trkpt>
        <trkpt lat="28.826424" lon="105.303745"><ele>632</ele><time>2025-10-02T00:31:59.000Z</time></trkpt>
        <trkpt lat="28.826369" lon="105.303829"><ele>634</ele><time>2025-10-02T00:32:10.000Z</time></trkpt>
        <trkpt lat="28.826281" lon="105.303871"><ele>635</ele><time>2025-10-02T00:32:23.000Z</time></trkpt>
        <trkpt lat="28.826203" lon="105.303925"><ele>635</ele><time>2025-10-02T00:32:37.000Z</time></trkpt>
        <trkpt lat="28.826145" lon="105.304011"><ele>635</ele><time>2025-10-02T00:33:04.000Z</time></trkpt>
        <trkpt lat="28.826099" lon="105.304101"><ele>635</ele><time>2025-10-02T00:33:17.000Z</time></trkpt>
        <trkpt lat="28.826019" lon="105.304164"><ele>635</ele><time>2025-10-02T00:33:29.000Z</time></trkpt>
        <trkpt lat="28.825933" lon="105.304215"><ele>636</ele><time>2025-10-02T00:33:42.000Z</time></trkpt>
        <trkpt lat="28.825857" lon="105.304284"><ele>635</ele><time>2025-10-02T00:33:59.000Z</time></trkpt>
        <trkpt lat="28.825791" lon="105.304356"><ele>635</ele><time>2025-10-02T00:34:13.000Z</time></trkpt>
        <trkpt lat="28.825884" lon="105.304361"><ele>635</ele><time>2025-10-02T00:36:27.000Z</time></trkpt>
        <trkpt lat="28.82607" lon="105.304426"><ele>634</ele><time>2025-10-02T00:36:46.000Z</time></trkpt>
        <trkpt lat="28.826159" lon="105.304475"><ele>633</ele><time>2025-10-02T00:36:53.000Z</time></trkpt>
        <trkpt lat="28.826216" lon="105.304566"><ele>633</ele><time>2025-10-02T00:37:04.000Z</time></trkpt>
        <trkpt lat="28.826226" lon="105.304672"><ele>632</ele><time>2025-10-02T00:37:13.000Z</time></trkpt>
        <trkpt lat="28.826295" lon="105.304745"><ele>630</ele><time>2025-10-02T00:37:22.000Z</time></trkpt>
        <trkpt lat="28.826334" lon="105.30485"><ele>627</ele><time>2025-10-02T00:37:34.000Z</time></trkpt>
        <trkpt lat="28.826392" lon="105.304941"><ele>626</ele><time>2025-10-02T00:37:43.000Z</time></trkpt>
        <trkpt lat="28.826424" lon="105.305038"><ele>625</ele><time>2025-10-02T00:37:52.000Z</time></trkpt>
        <trkpt lat="28.82645" lon="105.305143"><ele>624</ele><time>2025-10-02T00:38:03.000Z</time></trkpt>
        <trkpt lat="28.826505" lon="105.305226"><ele>625</ele><time>2025-10-02T00:38:13.000Z</time></trkpt>
        <trkpt lat="28.82654" lon="105.305331"><ele>626</ele><time>2025-10-02T00:38:20.000Z</time></trkpt>
        <trkpt lat="28.826573" lon="105.305436"><ele>627</ele><time>2025-10-02T00:38:29.000Z</time></trkpt>
        <trkpt lat="28.826606" lon="105.305532"><ele>627</ele><time>2025-10-02T00:38:39.000Z</time></trkpt>
        <trkpt lat="28.826656" lon="105.305623"><ele>626</ele><time>2025-10-02T00:38:48.000Z</time></trkpt>
        <trkpt lat="28.826715" lon="105.305713"><ele>624</ele><time>2025-10-02T00:38:55.000Z</time></trkpt>
        <trkpt lat="28.826791" lon="105.30578"><ele>623</ele><time>2025-10-02T00:39:05.000Z</time></trkpt>
        <trkpt lat="28.826879" lon="105.305825"><ele>622</ele><time>2025-10-02T00:39:15.000Z</time></trkpt>
        <trkpt lat="28.826964" lon="105.305875"><ele>622</ele><time>2025-10-02T00:39:23.000Z</time></trkpt>
        <trkpt lat="28.827044" lon="105.305942"><ele>624</ele><time>2025-10-02T00:39:31.000Z</time></trkpt>
        <trkpt lat="28.827095" lon="105.306036"><ele>625</ele><time>2025-10-02T00:39:42.000Z</time></trkpt>
        <trkpt lat="28.827052" lon="105.306139"><ele>626</ele><time>2025-10-02T00:39:53.000Z</time></trkpt>
        <trkpt lat="28.827003" lon="105.306231"><ele>624</ele><time>2025-10-02T00:40:02.000Z</time></trkpt>
        <trkpt lat="28.826988" lon="105.306333"><ele>624</ele><time>2025-10-02T00:40:11.000Z</time></trkpt>
        <trkpt lat="28.827002" lon="105.306444"><ele>625</ele><time>2025-10-02T00:40:20.000Z</time></trkpt>
        <trkpt lat="28.827003" lon="105.306549"><ele>624</ele><time>2025-10-02T00:40:31.000Z</time></trkpt>
        <trkpt lat="28.827011" lon="105.306658"><ele>625</ele><time>2025-10-02T00:40:42.000Z</time></trkpt>
        <trkpt lat="28.827036" lon="105.306768"><ele>624</ele><time>2025-10-02T00:40:50.000Z</time></trkpt>
        <trkpt lat="28.827083" lon="105.306862"><ele>624</ele><time>2025-10-02T00:40:59.000Z</time></trkpt>
        <trkpt lat="28.827155" lon="105.306935"><ele>625</ele><time>2025-10-02T00:41:09.000Z</time></trkpt>
        <trkpt lat="28.827224" lon="105.307005"><ele>625</ele><time>2025-10-02T00:41:17.000Z</time></trkpt>
        <trkpt lat="28.827304" lon="105.307061"><ele>626</ele><time>2025-10-02T00:41:26.000Z</time></trkpt>
        <trkpt lat="28.827359" lon="105.307145"><ele>627</ele><time>2025-10-02T00:41:34.000Z</time></trkpt>
        <trkpt lat="28.827305" lon="105.307242"><ele>627</ele><time>2025-10-02T00:41:53.000Z</time></trkpt>
        <trkpt lat="28.827221" lon="105.307287"><ele>624</ele><time>2025-10-02T00:42:02.000Z</time></trkpt>
        <trkpt lat="28.827138" lon="105.307333"><ele>622</ele><time>2025-10-02T00:42:13.000Z</time></trkpt>
        <trkpt lat="28.827121" lon="105.307438"><ele>620</ele><time>2025-10-02T00:42:21.000Z</time></trkpt>
        <trkpt lat="28.8271" lon="105.307541"><ele>618</ele><time>2025-10-02T00:42:30.000Z</time></trkpt>
        <trkpt lat="28.82712" lon="105.307657"><ele>616</ele><time>2025-10-02T00:42:39.000Z</time></trkpt>
        <trkpt lat="28.827157" lon="105.307756"><ele>614</ele><time>2025-10-02T00:42:54.000Z</time></trkpt>
        <trkpt lat="28.827188" lon="105.307854"><ele>613</ele><time>2025-10-02T00:43:04.000Z</time></trkpt>
        <trkpt lat="28.827224" lon="105.30795"><ele>614</ele><time>2025-10-02T00:43:14.000Z</time></trkpt>
        <trkpt lat="28.827263" lon="105.308044"><ele>615</ele><time>2025-10-02T00:43:27.000Z</time></trkpt>
        <trkpt lat="28.827299" lon="105.308143"><ele>615</ele><time>2025-10-02T00:43:36.000Z</time></trkpt>
        <trkpt lat="28.827388" lon="105.308183"><ele>614</ele><time>2025-10-02T00:43:51.000Z</time></trkpt>
        <trkpt lat="28.82747" lon="105.308244"><ele>613</ele><time>2025-10-02T00:44:01.000Z</time></trkpt>
        <trkpt lat="28.827545" lon="105.308309"><ele>612</ele><time>2025-10-02T00:44:11.000Z</time></trkpt>
        <trkpt lat="28.82764" lon="105.308339"><ele>612</ele><time>2025-10-02T00:44:21.000Z</time></trkpt>
        <trkpt lat="28.827724" lon="105.308398"><ele>614</ele><time>2025-10-02T00:44:32.000Z</time></trkpt>
        <trkpt lat="28.827791" lon="105.30847"><ele>618</ele><time>2025-10-02T00:44:49.000Z</time></trkpt>
        <trkpt lat="28.827745" lon="105.308562"><ele>619</ele><time>2025-10-02T00:45:11.000Z</time></trkpt>
        <trkpt lat="28.827731" lon="105.308673"><ele>621</ele><time>2025-10-02T00:45:22.000Z</time></trkpt>
        <trkpt lat="28.827752" lon="105.308777"><ele>623</ele><time>2025-10-02T00:45:31.000Z</time></trkpt>
        <trkpt lat="28.827742" lon="105.308891"><ele>625</ele><time>2025-10-02T00:45:45.000Z</time></trkpt>
        <trkpt lat="28.827723" lon="105.309003"><ele>625</ele><time>2025-10-02T00:45:55.000Z</time></trkpt>
        <trkpt lat="28.827645" lon="105.309071"><ele>624</ele><time>2025-10-02T00:46:05.000Z</time></trkpt>
        <trkpt lat="28.827556" lon="105.309101"><ele>622</ele><time>2025-10-02T00:46:20.000Z</time></trkpt>
        <trkpt lat="28.827567" lon="105.309206"><ele>622</ele><time>2025-10-02T00:46:41.000Z</time></trkpt>
        <trkpt lat="28.827607" lon="105.3093"><ele>623</ele><time>2025-10-02T00:46:58.000Z</time></trkpt>
        <trkpt lat="28.827623" lon="105.309411"><ele>623</ele><time>2025-10-02T00:47:07.000Z</time></trkpt>
        <trkpt lat="28.827613" lon="105.309516"><ele>623</ele><time>2025-10-02T00:47:14.000Z</time></trkpt>
        <trkpt lat="28.827647" lon="105.309613"><ele>622</ele><time>2025-10-02T00:47:20.000Z</time></trkpt>
        <trkpt lat="28.827708" lon="105.30969"><ele>623</ele><time>2025-10-02T00:47:29.000Z</time></trkpt>
        <trkpt lat="28.827724" lon="105.309794"><ele>622</ele><time>2025-10-02T00:47:45.000Z</time></trkpt>
        <trkpt lat="28.827784" lon="105.309887"><ele>622</ele><time>2025-10-02T00:47:57.000Z</time></trkpt>
        <trkpt lat="28.827799" lon="105.309991"><ele>621</ele><time>2025-10-02T00:48:07.000Z</time></trkpt>
        <trkpt lat="28.827784" lon="105.310093"><ele>620</ele><time>2025-10-02T00:48:15.000Z</time></trkpt>
        <trkpt lat="28.827743" lon="105.310186"><ele>621</ele><time>2025-10-02T00:48:25.000Z</time></trkpt>
        <trkpt lat="28.827734" lon="105.310289"><ele>622</ele><time>2025-10-02T00:48:36.000Z</time></trkpt>
        <trkpt lat="28.827692" lon="105.310384"><ele>623</ele><time>2025-10-02T00:48:45.000Z</time></trkpt>
        <trkpt lat="28.827656" lon="105.310482"><ele>626</ele><time>2025-10-02T00:48:54.000Z</time></trkpt>
        <trkpt lat="28.827611" lon="105.310575"><ele>628</ele><time>2025-10-02T00:49:06.000Z</time></trkpt>
        <trkpt lat="28.827561" lon="105.310665"><ele>629</ele><time>2025-10-02T00:49:16.000Z</time></trkpt>
        <trkpt lat="28.827515" lon="105.310762"><ele>630</ele><time>2025-10-02T00:49:41.000Z</time></trkpt>
        <trkpt lat="28.827458" lon="105.310843"><ele>629</ele><time>2025-10-02T00:50:19.000Z</time></trkpt>
        <trkpt lat="28.827363" lon="105.31086"><ele>629</ele><time>2025-10-02T00:50:31.000Z</time></trkpt>
        <trkpt lat="28.827276" lon="105.310891"><ele>629</ele><time>2025-10-02T00:50:45.000Z</time></trkpt>
        <trkpt lat="28.827189" lon="105.310857"><ele>627</ele><time>2025-10-02T00:51:01.000Z</time></trkpt>
        <trkpt lat="28.827082" lon="105.310814"><ele>626</ele><time>2025-10-02T00:51:20.000Z</time></trkpt>
        <trkpt lat="28.826991" lon="105.310804"><ele>624</ele><time>2025-10-02T00:51:30.000Z</time></trkpt>
        <trkpt lat="28.826905" lon="105.310841"><ele>623</ele><time>2025-10-02T00:51:44.000Z</time></trkpt>
        <trkpt lat="28.826814" lon="105.310834"><ele>621</ele><time>2025-10-02T00:52:02.000Z</time></trkpt>
        <trkpt lat="28.82673" lon="105.310878"><ele>620</ele><time>2025-10-02T00:52:19.000Z</time></trkpt>
        <trkpt lat="28.826636" lon="105.310886"><ele>619</ele><time>2025-10-02T00:52:45.000Z</time></trkpt>
        <trkpt lat="28.826543" lon="105.31089"><ele>617</ele><time>2025-10-02T00:53:07.000Z</time></trkpt>
        <trkpt lat="28.826465" lon="105.310941"><ele>615</ele><time>2025-10-02T00:53:20.000Z</time></trkpt>
        <trkpt lat="28.826369" lon="105.310958"><ele>612</ele><time>2025-10-02T00:53:35.000Z</time></trkpt>
        <trkpt lat="28.826294" lon="105.311025"><ele>609</ele><time>2025-10-02T00:53:56.000Z</time></trkpt>
        <trkpt lat="28.826233" lon="105.311103"><ele>606</ele><time>2025-10-02T00:54:12.000Z</time></trkpt>
        <trkpt lat="28.826146" lon="105.311151"><ele>604</ele><time>2025-10-02T00:54:55.000Z</time></trkpt>
        <trkpt lat="28.826159" lon="105.311047"><ele>604</ele><time>2025-10-02T00:55:24.000Z</time></trkpt>
        <trkpt lat="28.826098" lon="105.310969"><ele>601</ele><time>2025-10-02T00:56:10.000Z</time></trkpt>
        <trkpt lat="28.826128" lon="105.310864"><ele>601</ele><time>2025-10-02T00:56:53.000Z</time></trkpt>
        <trkpt lat="28.826069" lon="105.310786"><ele>598</ele><time>2025-10-02T00:58:26.000Z</time></trkpt>
        <trkpt lat="28.826018" lon="105.310693"><ele>596</ele><time>2025-10-02T00:58:38.000Z</time></trkpt>
        <trkpt lat="28.825994" lon="105.310592"><ele>596</ele><time>2025-10-02T00:58:49.000Z</time></trkpt>
        <trkpt lat="28.826011" lon="105.310491"><ele>597</ele><time>2025-10-02T00:59:41.000Z</time></trkpt>
        <trkpt lat="28.825933" lon="105.310439"><ele>592</ele><time>2025-10-02T01:00:10.000Z</time></trkpt>
        <trkpt lat="28.82592" lon="105.310331"><ele>590</ele><time>2025-10-02T01:00:34.000Z</time></trkpt>
        <trkpt lat="28.825861" lon="105.31025"><ele>587</ele><time>2025-10-02T01:00:49.000Z</time></trkpt>
        <trkpt lat="28.82585" lon="105.310354"><ele>580</ele><time>2025-10-02T01:01:43.000Z</time></trkpt>
        <trkpt lat="28.825749" lon="105.310358"><ele>578</ele><time>2025-10-02T01:02:58.000Z</time></trkpt>
        <trkpt lat="28.825719" lon="105.31046"><ele>571</ele><time>2025-10-02T01:04:10.000Z</time></trkpt>
        <trkpt lat="28.825638" lon="105.310409"><ele>560</ele><time>2025-10-02T01:05:02.000Z</time></trkpt>
        <trkpt lat="28.825554" lon="105.31045"><ele>552</ele><time>2025-10-02T01:05:47.000Z</time></trkpt>
        <trkpt lat="28.825513" lon="105.310355"><ele>546</ele><time>2025-10-02T01:06:10.000Z</time></trkpt>
        <trkpt lat="28.825437" lon="105.310425"><ele>543</ele><time>2025-10-02T01:06:59.000Z</time></trkpt>
        <trkpt lat="28.825436" lon="105.310534"><ele>541</ele><time>2025-10-02T01:07:11.000Z</time></trkpt>
        <trkpt lat="28.825451" lon="105.310641"><ele>540</ele><time>2025-10-02T01:08:01.000Z</time></trkpt>
        <trkpt lat="28.825453" lon="105.310752"><ele>541</ele><time>2025-10-02T01:08:27.000Z</time></trkpt>
        <trkpt lat="28.825373" lon="105.3108"><ele>538</ele><time>2025-10-02T01:08:47.000Z</time></trkpt>
        <trkpt lat="28.82546" lon="105.310755"><ele>540</ele><time>2025-10-02T01:09:20.000Z</time></trkpt>
        <trkpt lat="28.825484" lon="105.310854"><ele>544</ele><time>2025-10-02T01:10:27.000Z</time></trkpt>
        <trkpt lat="28.825446" lon="105.310949"><ele>546</ele><time>2025-10-02T01:10:45.000Z</time></trkpt>
        <trkpt lat="28.825427" lon="105.311071"><ele>549</ele><time>2025-10-02T01:11:11.000Z</time></trkpt>
        <trkpt lat="28.825394" lon="105.311182"><ele>551</ele><time>2025-10-02T01:11:25.000Z</time></trkpt>
        <trkpt lat="28.82537" lon="105.31129"><ele>551</ele><time>2025-10-02T01:11:36.000Z</time></trkpt>
        <trkpt lat="28.825317" lon="105.311385"><ele>552</ele><time>2025-10-02T01:11:50.000Z</time></trkpt>
        <trkpt lat="28.82526" lon="105.311481"><ele>550</ele><time>2025-10-02T01:12:00.000Z</time></trkpt>
        <trkpt lat="28.825204" lon="105.311564"><ele>546</ele><time>2025-10-02T01:12:26.000Z</time></trkpt>
        <trkpt lat="28.825197" lon="105.311669"><ele>545</ele><time>2025-10-02T01:12:59.000Z</time></trkpt>
        <trkpt lat="28.825262" lon="105.311757"><ele>544</ele><time>2025-10-02T01:13:13.000Z</time></trkpt>
        <trkpt lat="28.825344" lon="105.311803"><ele>546</ele><time>2025-10-02T01:13:29.000Z</time></trkpt>
        <trkpt lat="28.825425" lon="105.311861"><ele>551</ele><time>2025-10-02T01:13:38.000Z</time></trkpt>
        <trkpt lat="28.825453" lon="105.311967"><ele>552</ele><time>2025-10-02T01:13:59.000Z</time></trkpt>
        <trkpt lat="28.825481" lon="105.31208"><ele>549</ele><time>2025-10-02T01:14:13.000Z</time></trkpt>
        <trkpt lat="28.825548" lon="105.312159"><ele>550</ele><time>2025-10-02T01:14:25.000Z</time></trkpt>
        <trkpt lat="28.825608" lon="105.312251"><ele>551</ele><time>2025-10-02T01:14:40.000Z</time></trkpt>
        <trkpt lat="28.825685" lon="105.312318"><ele>552</ele><time>2025-10-02T01:15:04.000Z</time></trkpt>
        <trkpt lat="28.825769" lon="105.312358"><ele>558</ele><time>2025-10-02T01:15:32.000Z</time></trkpt>
        <trkpt lat="28.825836" lon="105.31244"><ele>560</ele><time>2025-10-02T01:17:06.000Z</time></trkpt>
        <trkpt lat="28.825808" lon="105.3125"><ele>556</ele><time>2025-10-02T01:17:51.000Z</time></trkpt>
        <trkpt lat="28.825781" lon="105.312605"><ele>553</ele><time>2025-10-02T01:19:54.000Z</time></trkpt>
        <trkpt lat="28.825802" lon="105.312711"><ele>551</ele><time>2025-10-02T01:20:07.000Z</time></trkpt>
        <trkpt lat="28.825774" lon="105.312809"><ele>549</ele><time>2025-10-02T01:20:25.000Z</time></trkpt>
        <trkpt lat="28.825711" lon="105.312892"><ele>546</ele><time>2025-10-02T01:20:41.000Z</time></trkpt>
        <trkpt lat="28.825625" lon="105.312925"><ele>544</ele><time>2025-10-02T01:20:54.000Z</time></trkpt>
        <trkpt lat="28.825569" lon="105.313009"><ele>537</ele><time>2025-10-02T01:21:10.000Z</time></trkpt>
        <trkpt lat="28.825522" lon="105.313109"><ele>534</ele><time>2025-10-02T01:21:40.000Z</time></trkpt>
        <trkpt lat="28.825448" lon="105.313172"><ele>529</ele><time>2025-10-02T01:21:54.000Z</time></trkpt>
        <trkpt lat="28.825383" lon="105.313249"><ele>528</ele><time>2025-10-02T01:22:09.000Z</time></trkpt>
        <trkpt lat="28.82536" lon="105.313353"><ele>528</ele><time>2025-10-02T01:22:27.000Z</time></trkpt>
        <trkpt lat="28.825269" lon="105.313366"><ele>525</ele><time>2025-10-02T01:22:50.000Z</time></trkpt>
        <trkpt lat="28.825199" lon="105.313431"><ele>522</ele><time>2025-10-02T01:23:29.000Z</time></trkpt>
        <trkpt lat="28.82517" lon="105.31353"><ele>522</ele><time>2025-10-02T01:24:21.000Z</time></trkpt>
        <trkpt lat="28.825128" lon="105.313631"><ele>522</ele><time>2025-10-02T01:24:48.000Z</time></trkpt>
        <trkpt lat="28.82512" lon="105.313734"><ele>522</ele><time>2025-10-02T01:24:58.000Z</time></trkpt>
        <trkpt lat="28.825119" lon="105.313846"><ele>522</ele><time>2025-10-02T01:25:14.000Z</time></trkpt>
        <trkpt lat="28.825113" lon="105.313949"><ele>522</ele><time>2025-10-02T01:25:32.000Z</time></trkpt>
        <trkpt lat="28.82512" lon="105.314055"><ele>520</ele><time>2025-10-02T01:25:48.000Z</time></trkpt>
        <trkpt lat="28.825115" lon="105.314165"><ele>518</ele><time>2025-10-02T01:26:16.000Z</time></trkpt>
        <trkpt lat="28.825178" lon="105.314252"><ele>517</ele><time>2025-10-02T01:26:44.000Z</time></trkpt>
        <trkpt lat="28.825263" lon="105.314288"><ele>517</ele><time>2025-10-02T01:27:15.000Z</time></trkpt>
        <trkpt lat="28.825346" lon="105.314333"><ele>518</ele><time>2025-10-02T01:27:28.000Z</time></trkpt>
        <trkpt lat="28.825439" lon="105.314338"><ele>520</ele><time>2025-10-02T01:29:39.000Z</time></trkpt>
        <trkpt lat="28.82553" lon="105.314315"><ele>521</ele><time>2025-10-02T01:30:25.000Z</time></trkpt>
        <trkpt lat="28.825624" lon="105.314347"><ele>523</ele><time>2025-10-02T01:30:44.000Z</time></trkpt>
        <trkpt lat="28.825721" lon="105.314347"><ele>526</ele><time>2025-10-02T01:30:56.000Z</time></trkpt>
        <trkpt lat="28.825814" lon="105.314395"><ele>529</ele><time>2025-10-02T01:31:14.000Z</time></trkpt>
        <trkpt lat="28.82589" lon="105.314456"><ele>530</ele><time>2025-10-02T01:31:28.000Z</time></trkpt>
        <trkpt lat="28.825941" lon="105.314546"><ele>531</ele><time>2025-10-02T01:31:43.000Z</time></trkpt>
        <trkpt lat="28.825992" lon="105.314631"><ele>532</ele><time>2025-10-02T01:31:58.000Z</time></trkpt>
        <trkpt lat="28.825988" lon="105.314742"><ele>531</ele><time>2025-10-02T01:32:11.000Z</time></trkpt>
        <trkpt lat="28.826009" lon="105.314846"><ele>529</ele><time>2025-10-02T01:32:20.000Z</time></trkpt>
        <trkpt lat="28.826051" lon="105.314942"><ele>529</ele><time>2025-10-02T01:32:42.000Z</time></trkpt>
        <trkpt lat="28.825983" lon="105.314869"><ele>528</ele><time>2025-10-02T01:40:30.000Z</time></trkpt>
        <trkpt lat="28.826077" lon="105.314956"><ele>528</ele><time>2025-10-02T01:41:23.000Z</time></trkpt>
        <trkpt lat="28.826016" lon="105.315083"><ele>526</ele><time>2025-10-02T01:42:47.000Z</time></trkpt>
        <trkpt lat="28.826002" lon="105.315196"><ele>521</ele><time>2025-10-02T01:43:03.000Z</time></trkpt>
        <trkpt lat="28.82604" lon="105.315297"><ele>520</ele><time>2025-10-02T01:43:12.000Z</time></trkpt>
        <trkpt lat="28.826089" lon="105.315392"><ele>521</ele><time>2025-10-02T01:43:22.000Z</time></trkpt>
        <trkpt lat="28.826153" lon="105.315473"><ele>522</ele><time>2025-10-02T01:43:32.000Z</time></trkpt>
        <trkpt lat="28.826215" lon="105.31556"><ele>521</ele><time>2025-10-02T01:43:46.000Z</time></trkpt>
        <trkpt lat="28.826258" lon="105.315654"><ele>518</ele><time>2025-10-02T01:44:01.000Z</time></trkpt>
        <trkpt lat="28.826276" lon="105.315755"><ele>515</ele><time>2025-10-02T01:45:11.000Z</time></trkpt>
        <trkpt lat="28.826279" lon="105.315858"><ele>513</ele><time>2025-10-02T01:45:27.000Z</time></trkpt>
        <trkpt lat="28.826302" lon="105.315958"><ele>509</ele><time>2025-10-02T01:45:46.000Z</time></trkpt>
        <trkpt lat="28.826264" lon="105.316058"><ele>506</ele><time>2025-10-02T01:46:08.000Z</time></trkpt>
        <trkpt lat="28.826247" lon="105.316159"><ele>504</ele><time>2025-10-02T01:46:19.000Z</time></trkpt>
        <trkpt lat="28.826156" lon="105.316141"><ele>505</ele><time>2025-10-02T01:46:52.000Z</time></trkpt>
        <trkpt lat="28.826076" lon="105.316195"><ele>509</ele><time>2025-10-02T01:48:00.000Z</time></trkpt>
        <trkpt lat="28.826081" lon="105.316301"><ele>508</ele><time>2025-10-02T01:48:11.000Z</time></trkpt>
        <trkpt lat="28.82605" lon="105.316399"><ele>484</ele><time>2025-10-02T01:48:51.000Z</time></trkpt>
        <trkpt lat="28.825985" lon="105.31647"><ele>479</ele><time>2025-10-02T01:49:12.000Z</time></trkpt>
        <trkpt lat="28.825887" lon="105.316469"><ele>476</ele><time>2025-10-02T01:49:20.000Z</time></trkpt>
        <trkpt lat="28.825807" lon="105.316417"><ele>473</ele><time>2025-10-02T01:49:37.000Z</time></trkpt>
        <trkpt lat="28.82574" lon="105.316489"><ele>473</ele><time>2025-10-02T01:49:54.000Z</time></trkpt>
        <trkpt lat="28.825688" lon="105.316579"><ele>471</ele><time>2025-10-02T01:50:29.000Z</time></trkpt>
        <trkpt lat="28.825625" lon="105.316661"><ele>469</ele><time>2025-10-02T01:50:40.000Z</time></trkpt>
        <trkpt lat="28.825559" lon="105.316743"><ele>468</ele><time>2025-10-02T01:51:08.000Z</time></trkpt>
        <trkpt lat="28.82549" lon="105.316821"><ele>467</ele><time>2025-10-02T01:51:21.000Z</time></trkpt>
        <trkpt lat="28.82549" lon="105.316925"><ele>467</ele><time>2025-10-02T01:51:32.000Z</time></trkpt>
        <trkpt lat="28.825486" lon="105.31703"><ele>466</ele><time>2025-10-02T01:51:46.000Z</time></trkpt>
        <trkpt lat="28.825452" lon="105.317126"><ele>464</ele><time>2025-10-02T01:52:15.000Z</time></trkpt>
        <trkpt lat="28.825421" lon="105.317227"><ele>464</ele><time>2025-10-02T01:52:31.000Z</time></trkpt>
        <trkpt lat="28.825337" lon="105.317184"><ele>462</ele><time>2025-10-02T01:52:48.000Z</time></trkpt>
        <trkpt lat="28.825255" lon="105.31723"><ele>459</ele><time>2025-10-02T01:53:24.000Z</time></trkpt>
        <trkpt lat="28.825255" lon="105.317334"><ele>457</ele><time>2025-10-02T01:53:48.000Z</time></trkpt>
        <trkpt lat="28.82516" lon="105.317336"><ele>455</ele><time>2025-10-02T01:54:04.000Z</time></trkpt>
        <trkpt lat="28.825066" lon="105.317344"><ele>449</ele><time>2025-10-02T01:54:33.000Z</time></trkpt>
        <trkpt lat="28.824978" lon="105.317375"><ele>445</ele><time>2025-10-02T01:54:49.000Z</time></trkpt>
        <trkpt lat="28.824969" lon="105.317268"><ele>443</ele><time>2025-10-02T01:55:05.000Z</time></trkpt>
        <trkpt lat="28.824988" lon="105.317167"><ele>445</ele><time>2025-10-02T01:55:24.000Z</time></trkpt>
        <trkpt lat="28.825007" lon="105.317063"><ele>447</ele><time>2025-10-02T01:55:42.000Z</time></trkpt>
        <trkpt lat="28.825003" lon="105.316956"><ele>448</ele><time>2025-10-02T01:55:57.000Z</time></trkpt>
        <trkpt lat="28.825059" lon="105.316866"><ele>453</ele><time>2025-10-02T01:56:18.000Z</time></trkpt>
        <trkpt lat="28.825093" lon="105.316769"><ele>456</ele><time>2025-10-02T01:56:31.000Z</time></trkpt>
        <trkpt lat="28.82505" lon="105.316668"><ele>459</ele><time>2025-10-02T01:56:54.000Z</time></trkpt>
        <trkpt lat="28.825013" lon="105.316567"><ele>459</ele><time>2025-10-02T01:57:11.000Z</time></trkpt>
        <trkpt lat="28.824958" lon="105.316486"><ele>460</ele><time>2025-10-02T01:57:23.000Z</time></trkpt>
        <trkpt lat="28.824906" lon="105.316397"><ele>461</ele><time>2025-10-02T01:57:43.000Z</time></trkpt>
        <trkpt lat="28.824836" lon="105.316463"><ele>459</ele><time>2025-10-02T01:58:14.000Z</time></trkpt>
        <trkpt lat="28.824749" lon="105.316497"><ele>457</ele><time>2025-10-02T01:58:30.000Z</time></trkpt>
        <trkpt lat="28.824663" lon="105.316558"><ele>455</ele><time>2025-10-02T01:58:42.000Z</time></trkpt>
        <trkpt lat="28.824571" lon="105.316585"><ele>454</ele><time>2025-10-02T01:58:55.000Z</time></trkpt>
        <trkpt lat="28.82448" lon="105.31657"><ele>453</ele><time>2025-10-02T01:59:10.000Z</time></trkpt>
        <trkpt lat="28.824384" lon="105.316543"><ele>454</ele><time>2025-10-02T01:59:24.000Z</time></trkpt>
        <trkpt lat="28.824296" lon="105.316504"><ele>455</ele><time>2025-10-02T01:59:33.000Z</time></trkpt>
        <trkpt lat="28.824206" lon="105.316474"><ele>457</ele><time>2025-10-02T01:59:46.000Z</time></trkpt>
        <trkpt lat="28.82413" lon="105.316419"><ele>458</ele><time>2025-10-02T02:00:07.000Z</time></trkpt>
        <trkpt lat="28.82406" lon="105.316335"><ele>460</ele><time>2025-10-02T02:00:20.000Z</time></trkpt>
        <trkpt lat="28.824015" lon="105.316236"><ele>462</ele><time>2025-10-02T02:00:32.000Z</time></trkpt>
        <trkpt lat="28.82396" lon="105.316145"><ele>463</ele><time>2025-10-02T02:01:11.000Z</time></trkpt>
        <trkpt lat="28.823878" lon="105.316088"><ele>464</ele><time>2025-10-02T02:01:20.000Z</time></trkpt>
        <trkpt lat="28.823804" lon="105.316021"><ele>462</ele><time>2025-10-02T02:01:29.000Z</time></trkpt>
        <trkpt lat="28.823717" lon="105.315963"><ele>458</ele><time>2025-10-02T02:01:43.000Z</time></trkpt>
        <trkpt lat="28.823658" lon="105.315883"><ele>455</ele><time>2025-10-02T02:01:57.000Z</time></trkpt>
        <trkpt lat="28.823629" lon="105.315778"><ele>453</ele><time>2025-10-02T02:02:17.000Z</time></trkpt>
        <trkpt lat="28.823649" lon="105.315673"><ele>453</ele><time>2025-10-02T02:02:28.000Z</time></trkpt>
        <trkpt lat="28.823646" lon="105.315565"><ele>454</ele><time>2025-10-02T02:02:40.000Z</time></trkpt>
        <trkpt lat="28.823632" lon="105.315463"><ele>454</ele><time>2025-10-02T02:02:52.000Z</time></trkpt>
        <trkpt lat="28.82363" lon="105.315355"><ele>454</ele><time>2025-10-02T02:03:00.000Z</time></trkpt>
        <trkpt lat="28.823613" lon="105.315247"><ele>454</ele><time>2025-10-02T02:03:13.000Z</time></trkpt>
        <trkpt lat="28.82361" lon="105.315139"><ele>453</ele><time>2025-10-02T02:03:22.000Z</time></trkpt>
        <trkpt lat="28.823582" lon="105.315034"><ele>452</ele><time>2025-10-02T02:03:29.000Z</time></trkpt>
        <trkpt lat="28.823554" lon="105.314926"><ele>451</ele><time>2025-10-02T02:03:41.000Z</time></trkpt>
        <trkpt lat="28.823519" lon="105.314826"><ele>449</ele><time>2025-10-02T02:03:53.000Z</time></trkpt>
        <trkpt lat="28.823503" lon="105.314723"><ele>448</ele><time>2025-10-02T02:04:01.000Z</time></trkpt>
        <trkpt lat="28.823476" lon="105.314621"><ele>446</ele><time>2025-10-02T02:04:11.000Z</time></trkpt>
        <trkpt lat="28.823497" lon="105.314518"><ele>446</ele><time>2025-10-02T02:04:34.000Z</time></trkpt>
        <trkpt lat="28.823482" lon="105.314413"><ele>445</ele><time>2025-10-02T02:05:16.000Z</time></trkpt>
        <trkpt lat="28.823432" lon="105.314323"><ele>443</ele><time>2025-10-02T02:05:36.000Z</time></trkpt>
        <trkpt lat="28.823392" lon="105.314225"><ele>441</ele><time>2025-10-02T02:05:50.000Z</time></trkpt>
        <trkpt lat="28.823406" lon="105.314119"><ele>441</ele><time>2025-10-02T02:06:02.000Z</time></trkpt>
        <trkpt lat="28.823389" lon="105.314016"><ele>440</ele><time>2025-10-02T02:06:11.000Z</time></trkpt>
        <trkpt lat="28.823393" lon="105.313912"><ele>440</ele><time>2025-10-02T02:06:25.000Z</time></trkpt>
        <trkpt lat="28.823394" lon="105.313804"><ele>440</ele><time>2025-10-02T02:06:38.000Z</time></trkpt>
        <trkpt lat="28.823362" lon="105.313695"><ele>438</ele><time>2025-10-02T02:06:51.000Z</time></trkpt>
        <trkpt lat="28.823331" lon="105.313586"><ele>437</ele><time>2025-10-02T02:06:59.000Z</time></trkpt>
        <trkpt lat="28.823279" lon="105.3135"><ele>436</ele><time>2025-10-02T02:07:07.000Z</time></trkpt>
        <trkpt lat="28.823303" lon="105.313399"><ele>429</ele><time>2025-10-02T02:07:21.000Z</time></trkpt>
        <trkpt lat="28.82334" lon="105.313302"><ele>428</ele><time>2025-10-02T02:07:36.000Z</time></trkpt>
        <trkpt lat="28.823382" lon="105.313211"><ele>429</ele><time>2025-10-02T02:07:55.000Z</time></trkpt>
        <trkpt lat="28.823388" lon="105.313077"><ele>429</ele><time>2025-10-02T02:08:22.000Z</time></trkpt>
        <trkpt lat="28.823376" lon="105.312973"><ele>428</ele><time>2025-10-02T02:08:58.000Z</time></trkpt>
        <trkpt lat="28.823328" lon="105.312884"><ele>427</ele><time>2025-10-02T02:09:21.000Z</time></trkpt>
        <trkpt lat="28.823241" lon="105.312841"><ele>424</ele><time>2025-10-02T02:09:55.000Z</time></trkpt>
        <trkpt lat="28.823156" lon="105.312805"><ele>421</ele><time>2025-10-02T02:10:05.000Z</time></trkpt>
        <trkpt lat="28.823091" lon="105.312732"><ele>419</ele><time>2025-10-02T02:10:20.000Z</time></trkpt>
        <trkpt lat="28.823016" lon="105.312658"><ele>417</ele><time>2025-10-02T02:10:35.000Z</time></trkpt>
        <trkpt lat="28.822953" lon="105.312569"><ele>417</ele><time>2025-10-02T02:10:52.000Z</time></trkpt>
        <trkpt lat="28.822875" lon="105.312503"><ele>416</ele><time>2025-10-02T02:11:05.000Z</time></trkpt>
        <trkpt lat="28.82281" lon="105.312423"><ele>413</ele><time>2025-10-02T02:11:19.000Z</time></trkpt>
        <trkpt lat="28.822809" lon="105.312318"><ele>412</ele><time>2025-10-02T02:11:35.000Z</time></trkpt>
        <trkpt lat="28.822799" lon="105.312206"><ele>413</ele><time>2025-10-02T02:11:51.000Z</time></trkpt>
        <trkpt lat="28.822748" lon="105.312121"><ele>413</ele><time>2025-10-02T02:12:01.000Z</time></trkpt>
        <trkpt lat="28.822677" lon="105.312051"><ele>413</ele><time>2025-10-02T02:12:11.000Z</time></trkpt>
        <trkpt lat="28.822584" lon="105.312062"><ele>412</ele><time>2025-10-02T02:12:28.000Z</time></trkpt>
        <trkpt lat="28.822495" lon="105.312077"><ele>410</ele><time>2025-10-02T02:12:53.000Z</time></trkpt>
        <trkpt lat="28.822413" lon="105.312122"><ele>412</ele><time>2025-10-02T02:13:12.000Z</time></trkpt>
        <trkpt lat="28.822368" lon="105.31222"><ele>411</ele><time>2025-10-02T02:13:28.000Z</time></trkpt>
        <trkpt lat="28.822339" lon="105.312317"><ele>409</ele><time>2025-10-02T02:13:43.000Z</time></trkpt>
        <trkpt lat="28.822251" lon="105.312336"><ele>411</ele><time>2025-10-02T02:13:59.000Z</time></trkpt>
        <trkpt lat="28.822156" lon="105.312331"><ele>415</ele><time>2025-10-02T02:14:16.000Z</time></trkpt>
        <trkpt lat="28.822093" lon="105.312413"><ele>418</ele><time>2025-10-02T02:14:33.000Z</time></trkpt>
        <trkpt lat="28.822011" lon="105.312463"><ele>418</ele><time>2025-10-02T02:14:52.000Z</time></trkpt>
        <trkpt lat="28.821921" lon="105.312469"><ele>421</ele><time>2025-10-02T02:15:14.000Z</time></trkpt>
        <trkpt lat="28.82187" lon="105.312563"><ele>418</ele><time>2025-10-02T02:15:25.000Z</time></trkpt>
        <trkpt lat="28.821828" lon="105.31266"><ele>418</ele><time>2025-10-02T02:15:33.000Z</time></trkpt>
        <trkpt lat="28.821788" lon="105.312762"><ele>418</ele><time>2025-10-02T02:15:44.000Z</time></trkpt>
        <trkpt lat="28.821708" lon="105.31281"><ele>419</ele><time>2025-10-02T02:15:56.000Z</time></trkpt>
        <trkpt lat="28.821621" lon="105.312847"><ele>421</ele><time>2025-10-02T02:16:07.000Z</time></trkpt>
        <trkpt lat="28.821534" lon="105.312879"><ele>420</ele><time>2025-10-02T02:16:23.000Z</time></trkpt>
        <trkpt lat="28.821441" lon="105.312874"><ele>421</ele><time>2025-10-02T02:16:32.000Z</time></trkpt>
        <trkpt lat="28.821348" lon="105.312889"><ele>423</ele><time>2025-10-02T02:16:42.000Z</time></trkpt>
        <trkpt lat="28.821281" lon="105.312965"><ele>422</ele><time>2025-10-02T02:16:55.000Z</time></trkpt>
        <trkpt lat="28.821195" lon="105.31301"><ele>421</ele><time>2025-10-02T02:17:07.000Z</time></trkpt>
        <trkpt lat="28.821111" lon="105.313053"><ele>421</ele><time>2025-10-02T02:17:17.000Z</time></trkpt>
        <trkpt lat="28.821016" lon="105.313071"><ele>421</ele><time>2025-10-02T02:17:29.000Z</time></trkpt>
        <trkpt lat="28.820926" lon="105.313098"><ele>423</ele><time>2025-10-02T02:17:47.000Z</time></trkpt>
        <trkpt lat="28.820839" lon="105.313133"><ele>423</ele><time>2025-10-02T02:18:02.000Z</time></trkpt>
        <trkpt lat="28.820754" lon="105.313181"><ele>424</ele><time>2025-10-02T02:18:14.000Z</time></trkpt>
        <trkpt lat="28.820661" lon="105.31321"><ele>425</ele><time>2025-10-02T02:18:25.000Z</time></trkpt>
        <trkpt lat="28.820568" lon="105.313222"><ele>426</ele><time>2025-10-02T02:18:47.000Z</time></trkpt>
        <trkpt lat="28.820587" lon="105.313112"><ele>426</ele><time>2025-10-02T02:19:03.000Z</time></trkpt>
        <trkpt lat="28.82061" lon="105.313007"><ele>427</ele><time>2025-10-02T02:19:18.000Z</time></trkpt>
        <trkpt lat="28.820664" lon="105.312924"><ele>428</ele><time>2025-10-02T02:20:14.000Z</time></trkpt>
        <trkpt lat="28.820678" lon="105.312821"><ele>430</ele><time>2025-10-02T02:21:29.000Z</time></trkpt>
        <trkpt lat="28.820707" lon="105.312715"><ele>432</ele><time>2025-10-02T02:21:48.000Z</time></trkpt>
        <trkpt lat="28.820743" lon="105.312612"><ele>434</ele><time>2025-10-02T02:22:18.000Z</time></trkpt>
        <trkpt lat="28.820779" lon="105.312516"><ele>436</ele><time>2025-10-02T02:22:36.000Z</time></trkpt>
        <trkpt lat="28.820829" lon="105.312427"><ele>439</ele><time>2025-10-02T02:22:54.000Z</time></trkpt>
        <trkpt lat="28.820859" lon="105.312325"><ele>441</ele><time>2025-10-02T02:23:09.000Z</time></trkpt>
        <trkpt lat="28.820891" lon="105.312224"><ele>444</ele><time>2025-10-02T02:23:30.000Z</time></trkpt>
        <trkpt lat="28.820941" lon="105.312134"><ele>447</ele><time>2025-10-02T02:23:50.000Z</time></trkpt>
        <trkpt lat="28.821016" lon="105.312065"><ele>450</ele><time>2025-10-02T02:24:19.000Z</time></trkpt>
        <trkpt lat="28.821106" lon="105.312046"><ele>452</ele><time>2025-10-02T02:24:36.000Z</time></trkpt>
        <trkpt lat="28.821195" lon="105.312012"><ele>454</ele><time>2025-10-02T02:24:58.000Z</time></trkpt>
        <trkpt lat="28.821273" lon="105.311955"><ele>457</ele><time>2025-10-02T02:25:21.000Z</time></trkpt>
        <trkpt lat="28.821358" lon="105.311907"><ele>458</ele><time>2025-10-02T02:25:36.000Z</time></trkpt>
        <trkpt lat="28.821438" lon="105.311855"><ele>459</ele><time>2025-10-02T02:25:53.000Z</time></trkpt>
        <trkpt lat="28.821518" lon="105.311803"><ele>460</ele><time>2025-10-02T02:26:11.000Z</time></trkpt>
        <trkpt lat="28.821554" lon="105.311707"><ele>460</ele><time>2025-10-02T02:26:27.000Z</time></trkpt>
        <trkpt lat="28.821538" lon="105.311603"><ele>461</ele><time>2025-10-02T02:26:40.000Z</time></trkpt>
        <trkpt lat="28.821491" lon="105.311507"><ele>463</ele><time>2025-10-02T02:26:54.000Z</time></trkpt>
        <trkpt lat="28.821431" lon="105.31142"><ele>465</ele><time>2025-10-02T02:27:09.000Z</time></trkpt>
        <trkpt lat="28.821398" lon="105.311319"><ele>469</ele><time>2025-10-02T02:27:26.000Z</time></trkpt>
        <trkpt lat="28.821374" lon="105.311217"><ele>472</ele><time>2025-10-02T02:27:48.000Z</time></trkpt>
        <trkpt lat="28.821385" lon="105.31111"><ele>475</ele><time>2025-10-02T02:28:08.000Z</time></trkpt>
        <trkpt lat="28.821419" lon="105.311015"><ele>478</ele><time>2025-10-02T02:28:25.000Z</time></trkpt>
        <trkpt lat="28.821459" lon="105.31092"><ele>481</ele><time>2025-10-02T02:28:45.000Z</time></trkpt>
        <trkpt lat="28.821487" lon="105.310815"><ele>485</ele><time>2025-10-02T02:29:05.000Z</time></trkpt>
        <trkpt lat="28.821572" lon="105.310775"><ele>487</ele><time>2025-10-02T02:29:27.000Z</time></trkpt>
        <trkpt lat="28.82167" lon="105.310765"><ele>487</ele><time>2025-10-02T02:29:42.000Z</time></trkpt>
        <trkpt lat="28.821758" lon="105.310732"><ele>487</ele><time>2025-10-02T02:29:58.000Z</time></trkpt>
        <trkpt lat="28.821831" lon="105.310668"><ele>488</ele><time>2025-10-02T02:30:15.000Z</time></trkpt>
        <trkpt lat="28.821903" lon="105.310595"><ele>489</ele><time>2025-10-02T02:30:36.000Z</time></trkpt>
        <trkpt lat="28.821982" lon="105.310536"><ele>489</ele><time>2025-10-02T02:30:51.000Z</time></trkpt>
        <trkpt lat="28.822054" lon="105.31047"><ele>490</ele><time>2025-10-02T02:31:04.000Z</time></trkpt>
        <trkpt lat="28.822113" lon="105.310386"><ele>491</ele><time>2025-10-02T02:31:19.000Z</time></trkpt>
        <trkpt lat="28.82213" lon="105.310277"><ele>493</ele><time>2025-10-02T02:32:21.000Z</time></trkpt>
        <trkpt lat="28.822166" lon="105.310173"><ele>494</ele><time>2025-10-02T02:32:47.000Z</time></trkpt>
        <trkpt lat="28.822132" lon="105.310075"><ele>494</ele><time>2025-10-02T02:33:09.000Z</time></trkpt>
        <trkpt lat="28.822065" lon="105.309992"><ele>497</ele><time>2025-10-02T02:33:20.000Z</time></trkpt>
        <trkpt lat="28.822031" lon="105.309889"><ele>498</ele><time>2025-10-02T02:33:45.000Z</time></trkpt>
        <trkpt lat="28.822005" lon="105.309785"><ele>500</ele><time>2025-10-02T02:34:02.000Z</time></trkpt>
        <trkpt lat="28.821968" lon="105.309691"><ele>502</ele><time>2025-10-02T02:34:40.000Z</time></trkpt>
        <trkpt lat="28.821924" lon="105.309587"><ele>502</ele><time>2025-10-02T02:34:59.000Z</time></trkpt>
        <trkpt lat="28.821886" lon="105.309492"><ele>504</ele><time>2025-10-02T02:35:12.000Z</time></trkpt>
        <trkpt lat="28.821845" lon="105.3094"><ele>506</ele><time>2025-10-02T02:35:25.000Z</time></trkpt>
        <trkpt lat="28.821768" lon="105.309331"><ele>508</ele><time>2025-10-02T02:35:39.000Z</time></trkpt>
        <trkpt lat="28.821682" lon="105.309288"><ele>511</ele><time>2025-10-02T02:36:16.000Z</time></trkpt>
        <trkpt lat="28.821592" lon="105.30925"><ele>513</ele><time>2025-10-02T02:36:29.000Z</time></trkpt>
        <trkpt lat="28.821552" lon="105.309143"><ele>514</ele><time>2025-10-02T02:36:39.000Z</time></trkpt>
        <trkpt lat="28.821512" lon="105.309051"><ele>516</ele><time>2025-10-02T02:36:47.000Z</time></trkpt>
        <trkpt lat="28.82146" lon="105.308966"><ele>518</ele><time>2025-10-02T02:36:56.000Z</time></trkpt>
        <trkpt lat="28.821444" lon="105.308861"><ele>520</ele><time>2025-10-02T02:37:17.000Z</time></trkpt>
        <trkpt lat="28.821484" lon="105.308761"><ele>521</ele><time>2025-10-02T02:37:39.000Z</time></trkpt>
        <trkpt lat="28.821482" lon="105.308656"><ele>523</ele><time>2025-10-02T02:37:55.000Z</time></trkpt>
        <trkpt lat="28.821548" lon="105.308579"><ele>525</ele><time>2025-10-02T02:38:16.000Z</time></trkpt>
        <trkpt lat="28.821642" lon="105.308579"><ele>526</ele><time>2025-10-02T02:38:30.000Z</time></trkpt>
        <trkpt lat="28.821739" lon="105.308569"><ele>528</ele><time>2025-10-02T02:38:44.000Z</time></trkpt>
        <trkpt lat="28.821829" lon="105.308545"><ele>528</ele><time>2025-10-02T02:39:03.000Z</time></trkpt>
        <trkpt lat="28.821912" lon="105.3085"><ele>529</ele><time>2025-10-02T02:39:14.000Z</time></trkpt>
        <trkpt lat="28.82196" lon="105.308412"><ele>532</ele><time>2025-10-02T02:39:27.000Z</time></trkpt>
        <trkpt lat="28.821991" lon="105.308308"><ele>536</ele><time>2025-10-02T02:39:45.000Z</time></trkpt>
        <trkpt lat="28.821957" lon="105.308207"><ele>537</ele><time>2025-10-02T02:40:01.000Z</time></trkpt>
        <trkpt lat="28.821909" lon="105.308108"><ele>539</ele><time>2025-10-02T02:40:17.000Z</time></trkpt>
        <trkpt lat="28.821935" lon="105.30801"><ele>540</ele><time>2025-10-02T02:40:36.000Z</time></trkpt>
        <trkpt lat="28.821895" lon="105.307916"><ele>541</ele><time>2025-10-02T02:40:58.000Z</time></trkpt>
        <trkpt lat="28.821833" lon="105.307835"><ele>541</ele><time>2025-10-02T02:41:14.000Z</time></trkpt>
        <trkpt lat="28.821808" lon="105.30773"><ele>542</ele><time>2025-10-02T02:41:29.000Z</time></trkpt>
        <trkpt lat="28.821782" lon="105.307628"><ele>542</ele><time>2025-10-02T02:41:42.000Z</time></trkpt>
        <trkpt lat="28.821779" lon="105.30752"><ele>542</ele><time>2025-10-02T02:41:56.000Z</time></trkpt>
        <trkpt lat="28.821828" lon="105.307432"><ele>542</ele><time>2025-10-02T02:42:17.000Z</time></trkpt>
        <trkpt lat="28.821867" lon="105.307337"><ele>544</ele><time>2025-10-02T02:42:27.000Z</time></trkpt>
        <trkpt lat="28.821854" lon="105.307233"><ele>546</ele><time>2025-10-02T02:42:40.000Z</time></trkpt>
        <trkpt lat="28.821826" lon="105.307121"><ele>548</ele><time>2025-10-02T02:43:05.000Z</time></trkpt>
        <trkpt lat="28.821796" lon="105.307014"><ele>549</ele><time>2025-10-02T02:43:16.000Z</time></trkpt>
        <trkpt lat="28.821743" lon="105.306929"><ele>550</ele><time>2025-10-02T02:43:29.000Z</time></trkpt>
        <trkpt lat="28.821744" lon="105.306826"><ele>552</ele><time>2025-10-02T02:43:39.000Z</time></trkpt>
        <trkpt lat="28.82178" lon="105.306724"><ele>555</ele><time>2025-10-02T02:43:50.000Z</time></trkpt>
        <trkpt lat="28.821786" lon="105.30662"><ele>558</ele><time>2025-10-02T02:44:03.000Z</time></trkpt>
        <trkpt lat="28.821784" lon="105.306516"><ele>560</ele><time>2025-10-02T02:44:12.000Z</time></trkpt>
        <trkpt lat="28.821788" lon="105.306209"><ele>570</ele><time>2025-10-02T02:46:46.000Z</time></trkpt>
        <trkpt lat="28.821757" lon="105.306108"><ele>573</ele><time>2025-10-02T02:47:02.000Z</time></trkpt>
        <trkpt lat="28.821746" lon="105.306006"><ele>575</ele><time>2025-10-02T02:47:17.000Z</time></trkpt>
        <trkpt lat="28.821731" lon="105.305903"><ele>577</ele><time>2025-10-02T02:47:29.000Z</time></trkpt>
        <trkpt lat="28.821691" lon="105.30581"><ele>578</ele><time>2025-10-02T02:47:48.000Z</time></trkpt>
        <trkpt lat="28.821682" lon="105.305702"><ele>579</ele><time>2025-10-02T02:48:02.000Z</time></trkpt>
        <trkpt lat="28.821704" lon="105.305596"><ele>586</ele><time>2025-10-02T02:48:19.000Z</time></trkpt>
        <trkpt lat="28.821652" lon="105.305512"><ele>588</ele><time>2025-10-02T02:48:31.000Z</time></trkpt>
        <trkpt lat="28.821593" lon="105.305425"><ele>589</ele><time>2025-10-02T02:48:43.000Z</time></trkpt>
        <trkpt lat="28.821501" lon="105.305387"><ele>589</ele><time>2025-10-02T02:48:56.000Z</time></trkpt>
        <trkpt lat="28.821439" lon="105.305307"><ele>589</ele><time>2025-10-02T02:49:07.000Z</time></trkpt>
        <trkpt lat="28.821387" lon="105.305218"><ele>589</ele><time>2025-10-02T02:49:23.000Z</time></trkpt>
        <trkpt lat="28.821339" lon="105.305118"><ele>589</ele><time>2025-10-02T02:49:34.000Z</time></trkpt>
        <trkpt lat="28.821314" lon="105.305002"><ele>590</ele><time>2025-10-02T02:49:45.000Z</time></trkpt>
        <trkpt lat="28.821277" lon="105.304903"><ele>590</ele><time>2025-10-02T02:49:55.000Z</time></trkpt>
        <trkpt lat="28.82127" lon="105.30479"><ele>591</ele><time>2025-10-02T02:50:08.000Z</time></trkpt>
        <trkpt lat="28.821263" lon="105.304686"><ele>593</ele><time>2025-10-02T02:50:19.000Z</time></trkpt>
        <trkpt lat="28.821243" lon="105.304576"><ele>593</ele><time>2025-10-02T02:50:33.000Z</time></trkpt>
        <trkpt lat="28.8212" lon="105.304473"><ele>592</ele><time>2025-10-02T02:50:43.000Z</time></trkpt>
        <trkpt lat="28.821156" lon="105.304373"><ele>590</ele><time>2025-10-02T02:50:53.000Z</time></trkpt>
        <trkpt lat="28.821107" lon="105.304285"><ele>591</ele><time>2025-10-02T02:51:03.000Z</time></trkpt>
        <trkpt lat="28.821072" lon="105.304189"><ele>592</ele><time>2025-10-02T02:51:13.000Z</time></trkpt>
        <trkpt lat="28.821025" lon="105.304095"><ele>592</ele><time>2025-10-02T02:51:25.000Z</time></trkpt>
        <trkpt lat="28.820986" lon="105.303989"><ele>590</ele><time>2025-10-02T02:51:36.000Z</time></trkpt>
        <trkpt lat="28.820953" lon="105.303892"><ele>588</ele><time>2025-10-02T02:51:46.000Z</time></trkpt>
        <trkpt lat="28.820927" lon="105.303782"><ele>588</ele><time>2025-10-02T02:51:56.000Z</time></trkpt>
        <trkpt lat="28.820949" lon="105.303681"><ele>587</ele><time>2025-10-02T02:52:06.000Z</time></trkpt>
        <trkpt lat="28.82101" lon="105.303596"><ele>587</ele><time>2025-10-02T02:52:15.000Z</time></trkpt>
        <trkpt lat="28.821076" lon="105.30352"><ele>586</ele><time>2025-10-02T02:52:24.000Z</time></trkpt>
        <trkpt lat="28.821161" lon="105.303479"><ele>586</ele><time>2025-10-02T02:52:39.000Z</time></trkpt>
        <trkpt lat="28.821219" lon="105.303394"><ele>584</ele><time>2025-10-02T02:52:50.000Z</time></trkpt>
        <trkpt lat="28.821235" lon="105.303288"><ele>582</ele><time>2025-10-02T02:53:01.000Z</time></trkpt>
        <trkpt lat="28.821278" lon="105.303195"><ele>580</ele><time>2025-10-02T02:53:16.000Z</time></trkpt>
        <trkpt lat="28.821312" lon="105.303098"><ele>578</ele><time>2025-10-02T02:53:28.000Z</time></trkpt>
        <trkpt lat="28.821385" lon="105.303033"><ele>575</ele><time>2025-10-02T02:53:44.000Z</time></trkpt>
        <trkpt lat="28.821483" lon="105.303028"><ele>572</ele><time>2025-10-02T02:53:57.000Z</time></trkpt>
        <trkpt lat="28.821574" lon="105.303052"><ele>569</ele><time>2025-10-02T02:54:11.000Z</time></trkpt>
        <trkpt lat="28.821669" lon="105.303017"><ele>568</ele><time>2025-10-02T02:54:24.000Z</time></trkpt>
        <trkpt lat="28.821746" lon="105.302961"><ele>565</ele><time>2025-10-02T02:54:35.000Z</time></trkpt>
        <trkpt lat="28.82179" lon="105.302866"><ele>563</ele><time>2025-10-02T02:54:47.000Z</time></trkpt>
        <trkpt lat="28.821787" lon="105.30276"><ele>562</ele><time>2025-10-02T02:55:01.000Z</time></trkpt>
        <trkpt lat="28.821759" lon="105.302662"><ele>561</ele><time>2025-10-02T02:55:32.000Z</time></trkpt>
        <trkpt lat="28.821734" lon="105.302562"><ele>561</ele><time>2025-10-02T02:55:42.000Z</time></trkpt>
        <trkpt lat="28.821709" lon="105.302459"><ele>562</ele><time>2025-10-02T02:55:52.000Z</time></trkpt>
        <trkpt lat="28.821741" lon="105.302358"><ele>562</ele><time>2025-10-02T02:56:03.000Z</time></trkpt>
        <trkpt lat="28.821758" lon="105.302242"><ele>561</ele><time>2025-10-02T02:56:15.000Z</time></trkpt>
        <trkpt lat="28.821773" lon="105.30213"><ele>561</ele><time>2025-10-02T02:56:26.000Z</time></trkpt>
        <trkpt lat="28.821809" lon="105.302026"><ele>560</ele><time>2025-10-02T02:56:37.000Z</time></trkpt>
        <trkpt lat="28.82183" lon="105.301924"><ele>559</ele><time>2025-10-02T02:56:48.000Z</time></trkpt>
        <trkpt lat="28.821849" lon="105.301811"><ele>559</ele><time>2025-10-02T02:56:59.000Z</time></trkpt>
        <trkpt lat="28.821908" lon="105.301731"><ele>560</ele><time>2025-10-02T02:57:08.000Z</time></trkpt>
        <trkpt lat="28.821992" lon="105.301682"><ele>558</ele><time>2025-10-02T02:57:18.000Z</time></trkpt>
        <trkpt lat="28.822071" lon="105.301624"><ele>554</ele><time>2025-10-02T02:57:28.000Z</time></trkpt>
        <trkpt lat="28.822124" lon="105.301535"><ele>552</ele><time>2025-10-02T02:57:39.000Z</time></trkpt>
        <trkpt lat="28.822149" lon="105.301433"><ele>550</ele><time>2025-10-02T02:57:52.000Z</time></trkpt>
        <trkpt lat="28.822149" lon="105.301318"><ele>550</ele><time>2025-10-02T02:58:05.000Z</time></trkpt>
        <trkpt lat="28.82217" lon="105.301212"><ele>548</ele><time>2025-10-02T02:58:16.000Z</time></trkpt>
        <trkpt lat="28.822169" lon="105.301101"><ele>546</ele><time>2025-10-02T02:58:26.000Z</time></trkpt>
        <trkpt lat="28.822124" lon="105.301006"><ele>545</ele><time>2025-10-02T02:58:36.000Z</time></trkpt>
        <trkpt lat="28.822066" lon="105.300924"><ele>546</ele><time>2025-10-02T02:58:44.000Z</time></trkpt>
        <trkpt lat="28.822014" lon="105.300837"><ele>546</ele><time>2025-10-02T02:58:59.000Z</time></trkpt>
        <trkpt lat="28.822023" lon="105.300729"><ele>547</ele><time>2025-10-02T02:59:12.000Z</time></trkpt>
        <trkpt lat="28.822074" lon="105.300642"><ele>548</ele><time>2025-10-02T02:59:23.000Z</time></trkpt>
        <trkpt lat="28.822161" lon="105.30059"><ele>547</ele><time>2025-10-02T02:59:34.000Z</time></trkpt>
        <trkpt lat="28.822255" lon="105.30056"><ele>545</ele><time>2025-10-02T02:59:42.000Z</time></trkpt>
        <trkpt lat="28.822338" lon="105.300499"><ele>543</ele><time>2025-10-02T02:59:53.000Z</time></trkpt>
        <trkpt lat="28.822398" lon="105.300412"><ele>543</ele><time>2025-10-02T03:00:03.000Z</time></trkpt>
        <trkpt lat="28.822464" lon="105.300327"><ele>542</ele><time>2025-10-02T03:00:12.000Z</time></trkpt>
        <trkpt lat="28.822543" lon="105.300268"><ele>542</ele><time>2025-10-02T03:00:20.000Z</time></trkpt>
        <trkpt lat="28.822613" lon="105.300199"><ele>541</ele><time>2025-10-02T03:00:28.000Z</time></trkpt>
        <trkpt lat="28.822697" lon="105.300159"><ele>541</ele><time>2025-10-02T03:00:35.000Z</time></trkpt>
        <trkpt lat="28.822777" lon="105.300106"><ele>540</ele><time>2025-10-02T03:00:49.000Z</time></trkpt>
        <trkpt lat="28.822839" lon="105.300024"><ele>539</ele><time>2025-10-02T03:01:00.000Z</time></trkpt>
        <trkpt lat="28.822844" lon="105.29991"><ele>536</ele><time>2025-10-02T03:01:09.000Z</time></trkpt>
        <trkpt lat="28.822803" lon="105.299805"><ele>536</ele><time>2025-10-02T03:01:18.000Z</time></trkpt>
        <trkpt lat="28.822727" lon="105.299733"><ele>538</ele><time>2025-10-02T03:01:26.000Z</time></trkpt>
        <trkpt lat="28.822648" lon="105.299676"><ele>539</ele><time>2025-10-02T03:01:35.000Z</time></trkpt>
        <trkpt lat="28.822574" lon="105.299608"><ele>538</ele><time>2025-10-02T03:01:44.000Z</time></trkpt>
        <trkpt lat="28.822493" lon="105.299537"><ele>538</ele><time>2025-10-02T03:01:53.000Z</time></trkpt>
        <trkpt lat="28.822445" lon="105.299446"><ele>537</ele><time>2025-10-02T03:02:04.000Z</time></trkpt>
        <trkpt lat="28.822436" lon="105.299341"><ele>535</ele><time>2025-10-02T03:02:15.000Z</time></trkpt>
        <trkpt lat="28.822477" lon="105.299246"><ele>533</ele><time>2025-10-02T03:02:31.000Z</time></trkpt>
        <trkpt lat="28.822513" lon="105.299149"><ele>532</ele><time>2025-10-02T03:02:42.000Z</time></trkpt>
        <trkpt lat="28.822542" lon="105.299046"><ele>527</ele><time>2025-10-02T03:02:53.000Z</time></trkpt>
        <trkpt lat="28.822591" lon="105.298952"><ele>522</ele><time>2025-10-02T03:03:07.000Z</time></trkpt>
        <trkpt lat="28.822654" lon="105.29887"><ele>518</ele><time>2025-10-02T03:03:18.000Z</time></trkpt>
        <trkpt lat="28.82271" lon="105.298784"><ele>516</ele><time>2025-10-02T03:03:33.000Z</time></trkpt>
        <trkpt lat="28.822754" lon="105.298694"><ele>515</ele><time>2025-10-02T03:03:52.000Z</time></trkpt>
        <trkpt lat="28.822754" lon="105.298587"><ele>514</ele><time>2025-10-02T03:04:04.000Z</time></trkpt>
        <trkpt lat="28.822776" lon="105.298477"><ele>513</ele><time>2025-10-02T03:04:16.000Z</time></trkpt>
        <trkpt lat="28.822818" lon="105.298384"><ele>512</ele><time>2025-10-02T03:04:24.000Z</time></trkpt>
        <trkpt lat="28.822881" lon="105.298308"><ele>512</ele><time>2025-10-02T03:04:32.000Z</time></trkpt>
        <trkpt lat="28.822957" lon="105.298248"><ele>510</ele><time>2025-10-02T03:04:41.000Z</time></trkpt>
        <trkpt lat="28.823049" lon="105.298242"><ele>509</ele><time>2025-10-02T03:04:52.000Z</time></trkpt>
        <trkpt lat="28.823119" lon="105.298309"><ele>508</ele><time>2025-10-02T03:05:13.000Z</time></trkpt>
        <trkpt lat="28.82321" lon="105.2983"><ele>506</ele><time>2025-10-02T03:05:26.000Z</time></trkpt>
        <trkpt lat="28.823288" lon="105.298231"><ele>504</ele><time>2025-10-02T03:05:42.000Z</time></trkpt>
        <trkpt lat="28.823197" lon="105.298215"><ele>505</ele><time>2025-10-02T03:07:22.000Z</time></trkpt>
        <trkpt lat="28.823248" lon="105.298127"><ele>505</ele><time>2025-10-02T03:08:10.000Z</time></trkpt>
        <trkpt lat="28.823298" lon="105.29804"><ele>504</ele><time>2025-10-02T03:08:27.000Z</time></trkpt>
        <trkpt lat="28.823287" lon="105.29793"><ele>505</ele><time>2025-10-02T03:08:39.000Z</time></trkpt>
        <trkpt lat="28.823235" lon="105.297845"><ele>505</ele><time>2025-10-02T03:08:52.000Z</time></trkpt>
        <trkpt lat="28.823216" lon="105.29774"><ele>504</ele><time>2025-10-02T03:09:03.000Z</time></trkpt>
        <trkpt lat="28.823188" lon="105.297838"><ele>504</ele><time>2025-10-02T03:10:41.000Z</time></trkpt>
        <trkpt lat="28.823147" lon="105.29793"><ele>503</ele><time>2025-10-02T03:10:52.000Z</time></trkpt>
        <trkpt lat="28.82306" lon="105.297977"><ele>504</ele><time>2025-10-02T03:10:59.000Z</time></trkpt>
        <trkpt lat="28.822967" lon="105.297973"><ele>503</ele><time>2025-10-02T03:11:06.000Z</time></trkpt>
        <trkpt lat="28.822915" lon="105.297883"><ele>503</ele><time>2025-10-02T03:11:41.000Z</time></trkpt>
        <trkpt lat="28.822821" lon="105.297851"><ele>502</ele><time>2025-10-02T03:11:50.000Z</time></trkpt>
        <trkpt lat="28.822735" lon="105.297819"><ele>501</ele><time>2025-10-02T03:12:05.000Z</time></trkpt>
        <trkpt lat="28.822713" lon="105.297718"><ele>499</ele><time>2025-10-02T03:12:16.000Z</time></trkpt>
        <trkpt lat="28.822687" lon="105.297609"><ele>498</ele><time>2025-10-02T03:12:26.000Z</time></trkpt>
        <trkpt lat="28.822662" lon="105.297499"><ele>499</ele><time>2025-10-02T03:12:35.000Z</time></trkpt>
        <trkpt lat="28.822679" lon="105.297392"><ele>499</ele><time>2025-10-02T03:12:45.000Z</time></trkpt>
        <trkpt lat="28.822718" lon="105.297296"><ele>499</ele><time>2025-10-02T03:12:53.000Z</time></trkpt>
        <trkpt lat="28.822788" lon="105.297217"><ele>498</ele><time>2025-10-02T03:13:33.000Z</time></trkpt>
        <trkpt lat="28.822821" lon="105.297118"><ele>498</ele><time>2025-10-02T03:13:42.000Z</time></trkpt>
        <trkpt lat="28.822834" lon="105.297015"><ele>497</ele><time>2025-10-02T03:13:54.000Z</time></trkpt>
        <trkpt lat="28.822848" lon="105.296902"><ele>496</ele><time>2025-10-02T03:14:07.000Z</time></trkpt>
        <trkpt lat="28.822864" lon="105.2968"><ele>496</ele><time>2025-10-02T03:14:21.000Z</time></trkpt>
        <trkpt lat="28.822896" lon="105.296704"><ele>495</ele><time>2025-10-02T03:14:47.000Z</time></trkpt>
        <trkpt lat="28.822943" lon="105.296603"><ele>495</ele><time>2025-10-02T03:15:00.000Z</time></trkpt>
        <trkpt lat="28.822982" lon="105.296503"><ele>495</ele><time>2025-10-02T03:15:15.000Z</time></trkpt>
        <trkpt lat="28.823044" lon="105.296425"><ele>493</ele><time>2025-10-02T03:15:27.000Z</time></trkpt>
        <trkpt lat="28.823111" lon="105.296343"><ele>492</ele><time>2025-10-02T03:15:40.000Z</time></trkpt>
        <trkpt lat="28.823168" lon="105.296263"><ele>493</ele><time>2025-10-02T03:15:48.000Z</time></trkpt>
        <trkpt lat="28.823254" lon="105.296219"><ele>492</ele><time>2025-10-02T03:16:00.000Z</time></trkpt>
        <trkpt lat="28.823337" lon="105.296163"><ele>491</ele><time>2025-10-02T03:16:13.000Z</time></trkpt>
        <trkpt lat="28.823413" lon="105.296106"><ele>489</ele><time>2025-10-02T03:16:25.000Z</time></trkpt>
        <trkpt lat="28.823507" lon="105.296105"><ele>488</ele><time>2025-10-02T03:16:36.000Z</time></trkpt>
        <trkpt lat="28.823601" lon="105.296091"><ele>487</ele><time>2025-10-02T03:16:46.000Z</time></trkpt>
        <trkpt lat="28.823693" lon="105.296061"><ele>485</ele><time>2025-10-02T03:17:16.000Z</time></trkpt>
        <trkpt lat="28.823782" lon="105.296037"><ele>485</ele><time>2025-10-02T03:17:32.000Z</time></trkpt>
        <trkpt lat="28.823875" lon="105.29601"><ele>483</ele><time>2025-10-02T03:17:52.000Z</time></trkpt>
        <trkpt lat="28.823947" lon="105.295947"><ele>483</ele><time>2025-10-02T03:19:06.000Z</time></trkpt>
        <trkpt lat="28.824029" lon="105.296002"><ele>480</ele><time>2025-10-02T03:19:54.000Z</time></trkpt>
        <trkpt lat="28.824121" lon="105.295991"><ele>477</ele><time>2025-10-02T03:20:14.000Z</time></trkpt>
        <trkpt lat="28.82414" lon="105.295888"><ele>476</ele><time>2025-10-02T03:20:31.000Z</time></trkpt>
        <trkpt lat="28.824182" lon="105.295796"><ele>474</ele><time>2025-10-02T03:20:54.000Z</time></trkpt>
        <trkpt lat="28.824279" lon="105.295795"><ele>472</ele><time>2025-10-02T03:22:41.000Z</time></trkpt>
        <trkpt lat="28.824296" lon="105.295688"><ele>472</ele><time>2025-10-02T03:23:14.000Z</time></trkpt>
        <trkpt lat="28.824282" lon="105.295584"><ele>470</ele><time>2025-10-02T03:23:29.000Z</time></trkpt>
        <trkpt lat="28.824248" lon="105.295483"><ele>469</ele><time>2025-10-02T03:24:00.000Z</time></trkpt>
        <trkpt lat="28.824255" lon="105.295375"><ele>467</ele><time>2025-10-02T03:24:22.000Z</time></trkpt>
        <trkpt lat="28.824273" lon="105.295273"><ele>464</ele><time>2025-10-02T03:25:01.000Z</time></trkpt>
        <trkpt lat="28.824256" lon="105.295161"><ele>462</ele><time>2025-10-02T03:25:26.000Z</time></trkpt>
        <trkpt lat="28.82426" lon="105.295054"><ele>458</ele><time>2025-10-02T03:25:47.000Z</time></trkpt>
        <trkpt lat="28.824227" lon="105.294958"><ele>456</ele><time>2025-10-02T03:26:06.000Z</time></trkpt>
        <trkpt lat="28.824202" lon="105.294857"><ele>452</ele><time>2025-10-02T03:26:39.000Z</time></trkpt>
        <trkpt lat="28.824181" lon="105.294756"><ele>449</ele><time>2025-10-02T03:27:18.000Z</time></trkpt>
        <trkpt lat="28.824178" lon="105.294651"><ele>447</ele><time>2025-10-02T03:27:44.000Z</time></trkpt>
        <trkpt lat="28.824182" lon="105.294547"><ele>444</ele><time>2025-10-02T03:28:17.000Z</time></trkpt>
        <trkpt lat="28.824241" lon="105.294469"><ele>441</ele><time>2025-10-02T03:29:12.000Z</time></trkpt>
        <trkpt lat="28.824319" lon="105.294412"><ele>437</ele><time>2025-10-02T03:30:21.000Z</time></trkpt>
        <trkpt lat="28.824383" lon="105.29433"><ele>434</ele><time>2025-10-02T03:30:53.000Z</time></trkpt>
        <trkpt lat="28.824416" lon="105.294224"><ele>434</ele><time>2025-10-02T03:31:15.000Z</time></trkpt>
        <trkpt lat="28.824432" lon="105.29412"><ele>435</ele><time>2025-10-02T03:31:29.000Z</time></trkpt>
        <trkpt lat="28.82447" lon="105.294021"><ele>435</ele><time>2025-10-02T03:31:45.000Z</time></trkpt>
        <trkpt lat="28.824548" lon="105.293969"><ele>433</ele><time>2025-10-02T03:32:09.000Z</time></trkpt>
        <trkpt lat="28.824589" lon="105.29387"><ele>431</ele><time>2025-10-02T03:32:28.000Z</time></trkpt>
        <trkpt lat="28.824613" lon="105.293766"><ele>430</ele><time>2025-10-02T03:32:42.000Z</time></trkpt>
        <trkpt lat="28.824647" lon="105.293666"><ele>430</ele><time>2025-10-02T03:32:56.000Z</time></trkpt>
        <trkpt lat="28.824687" lon="105.293568"><ele>429</ele><time>2025-10-02T03:33:10.000Z</time></trkpt>
        <trkpt lat="28.824719" lon="105.293472"><ele>426</ele><time>2025-10-02T03:33:23.000Z</time></trkpt>
        <trkpt lat="28.824719" lon="105.293368"><ele>425</ele><time>2025-10-02T03:33:43.000Z</time></trkpt>
        <trkpt lat="28.824767" lon="105.293281"><ele>421</ele><time>2025-10-02T03:34:06.000Z</time></trkpt>
        <trkpt lat="28.824841" lon="105.29322"><ele>415</ele><time>2025-10-02T03:35:08.000Z</time></trkpt>
        <trkpt lat="28.824834" lon="105.293113"><ele>414</ele><time>2025-10-02T03:35:35.000Z</time></trkpt>
        <trkpt lat="28.824847" lon="105.29301"><ele>411</ele><time>2025-10-02T03:36:56.000Z</time></trkpt>
        <trkpt lat="28.824779" lon="105.292939"><ele>411</ele><time>2025-10-02T03:37:57.000Z</time></trkpt>
        <trkpt lat="28.824753" lon="105.29284"><ele>411</ele><time>2025-10-02T03:38:15.000Z</time></trkpt>
        <trkpt lat="28.824719" lon="105.292732"><ele>410</ele><time>2025-10-02T03:38:38.000Z</time></trkpt>
        <trkpt lat="28.824688" lon="105.29263"><ele>409</ele><time>2025-10-02T03:39:03.000Z</time></trkpt>
        <trkpt lat="28.824668" lon="105.292525"><ele>408</ele><time>2025-10-02T03:39:13.000Z</time></trkpt>
        <trkpt lat="28.824704" lon="105.292429"><ele>405</ele><time>2025-10-02T03:39:32.000Z</time></trkpt>
        <trkpt lat="28.824757" lon="105.292338"><ele>402</ele><time>2025-10-02T03:39:54.000Z</time></trkpt>
        <trkpt lat="28.82483" lon="105.292266"><ele>398</ele><time>2025-10-02T03:40:36.000Z</time></trkpt>
        <trkpt lat="28.824881" lon="105.29217"><ele>395</ele><time>2025-10-02T03:41:00.000Z</time></trkpt>
        <trkpt lat="28.824946" lon="105.292095"><ele>392</ele><time>2025-10-02T03:41:20.000Z</time></trkpt>
        <trkpt lat="28.825008" lon="105.292012"><ele>389</ele><time>2025-10-02T03:41:34.000Z</time></trkpt>
        <trkpt lat="28.825056" lon="105.291919"><ele>386</ele><time>2025-10-02T03:41:59.000Z</time></trkpt>
        <trkpt lat="28.825079" lon="105.291819"><ele>384</ele><time>2025-10-02T03:42:27.000Z</time></trkpt>
        <trkpt lat="28.825159" lon="105.291766"><ele>381</ele><time>2025-10-02T03:42:53.000Z</time></trkpt>
        <trkpt lat="28.825215" lon="105.291679"><ele>379</ele><time>2025-10-02T03:43:10.000Z</time></trkpt>
        <trkpt lat="28.825254" lon="105.29158"><ele>377</ele><time>2025-10-02T03:43:32.000Z</time></trkpt>
        <trkpt lat="28.825293" lon="105.291488"><ele>376</ele><time>2025-10-02T03:43:43.000Z</time></trkpt>
        <trkpt lat="28.825379" lon="105.291448"><ele>375</ele><time>2025-10-02T03:43:54.000Z</time></trkpt>
        <trkpt lat="28.82535" lon="105.291347"><ele>374</ele><time>2025-10-02T03:44:05.000Z</time></trkpt>
        <trkpt lat="28.825335" lon="105.291239"><ele>374</ele><time>2025-10-02T03:44:13.000Z</time></trkpt>
        <trkpt lat="28.825382" lon="105.291149"><ele>372</ele><time>2025-10-02T03:44:22.000Z</time></trkpt>
        <trkpt lat="28.825447" lon="105.291057"><ele>371</ele><time>2025-10-02T03:44:32.000Z</time></trkpt>
        <trkpt lat="28.825531" lon="105.291009"><ele>368</ele><time>2025-10-02T03:44:43.000Z</time></trkpt>
        <trkpt lat="28.825614" lon="105.290962"><ele>366</ele><time>2025-10-02T03:45:21.000Z</time></trkpt>
        <trkpt lat="28.825707" lon="105.290952"><ele>365</ele><time>2025-10-02T03:45:32.000Z</time></trkpt>
        <trkpt lat="28.825795" lon="105.290925"><ele>363</ele><time>2025-10-02T03:45:43.000Z</time></trkpt>
        <trkpt lat="28.825894" lon="105.290905"><ele>363</ele><time>2025-10-02T03:45:52.000Z</time></trkpt>
        <trkpt lat="28.825987" lon="105.290897"><ele>361</ele><time>2025-10-02T03:46:04.000Z</time></trkpt>
        <trkpt lat="28.826068" lon="105.290942"><ele>360</ele><time>2025-10-02T03:46:17.000Z</time></trkpt>
        <trkpt lat="28.826149" lon="105.290992"><ele>359</ele><time>2025-10-02T03:46:32.000Z</time></trkpt>
        <trkpt lat="28.826215" lon="105.291069"><ele>357</ele><time>2025-10-02T03:46:45.000Z</time></trkpt>
        <trkpt lat="28.826304" lon="105.291096"><ele>356</ele><time>2025-10-02T03:47:03.000Z</time></trkpt>
        <trkpt lat="28.826377" lon="105.291169"><ele>354</ele><time>2025-10-02T03:47:19.000Z</time></trkpt>
        <trkpt lat="28.826466" lon="105.291197"><ele>352</ele><time>2025-10-02T03:47:35.000Z</time></trkpt>
        <trkpt lat="28.82655" lon="105.291251"><ele>351</ele><time>2025-10-02T03:47:47.000Z</time></trkpt>
        <trkpt lat="28.826635" lon="105.291297"><ele>350</ele><time>2025-10-02T03:47:58.000Z</time></trkpt>
        <trkpt lat="28.826725" lon="105.291329"><ele>349</ele><time>2025-10-02T03:48:09.000Z</time></trkpt>
        <trkpt lat="28.826818" lon="105.291369"><ele>348</ele><time>2025-10-02T03:48:19.000Z</time></trkpt>
        <trkpt lat="28.826887" lon="105.291438"><ele>347</ele><time>2025-10-02T03:48:31.000Z</time></trkpt>
        <trkpt lat="28.82696" lon="105.291516"><ele>345</ele><time>2025-10-02T03:48:57.000Z</time></trkpt>
        <trkpt lat="28.826972" lon="105.291624"><ele>344</ele><time>2025-10-02T03:49:08.000Z</time></trkpt>
        <trkpt lat="28.826944" lon="105.291727"><ele>342</ele><time>2025-10-02T03:49:22.000Z</time></trkpt>
        <trkpt lat="28.826909" lon="105.291825"><ele>342</ele><time>2025-10-02T03:49:34.000Z</time></trkpt>
        <trkpt lat="28.826854" lon="105.291912"><ele>342</ele><time>2025-10-02T03:49:47.000Z</time></trkpt>
        <trkpt lat="28.826819" lon="105.292007"><ele>342</ele><time>2025-10-02T03:50:06.000Z</time></trkpt>
        <trkpt lat="28.826764" lon="105.292099"><ele>341</ele><time>2025-10-02T03:50:19.000Z</time></trkpt>
        <trkpt lat="28.826703" lon="105.29218"><ele>339</ele><time>2025-10-02T03:50:31.000Z</time></trkpt>
        <trkpt lat="28.826662" lon="105.292276"><ele>338</ele><time>2025-10-02T03:50:40.000Z</time></trkpt>
        <trkpt lat="28.826636" lon="105.292384"><ele>337</ele><time>2025-10-02T03:50:51.000Z</time></trkpt>
        <trkpt lat="28.826603" lon="105.292483"><ele>337</ele><time>2025-10-02T03:51:01.000Z</time></trkpt>
        <trkpt lat="28.826592" lon="105.292585"><ele>336</ele><time>2025-10-02T03:51:13.000Z</time></trkpt>
        <trkpt lat="28.826578" lon="105.292687"><ele>336</ele><time>2025-10-02T03:51:24.000Z</time></trkpt>
        <trkpt lat="28.826577" lon="105.292797"><ele>336</ele><time>2025-10-02T03:51:35.000Z</time></trkpt>
        <trkpt lat="28.826614" lon="105.292901"><ele>334</ele><time>2025-10-02T03:51:46.000Z</time></trkpt>
        <trkpt lat="28.826657" lon="105.292998"><ele>332</ele><time>2025-10-02T03:52:02.000Z</time></trkpt>
        <trkpt lat="28.826718" lon="105.293074"><ele>329</ele><time>2025-10-02T03:52:18.000Z</time></trkpt>
        <trkpt lat="28.82679" lon="105.293148"><ele>330</ele><time>2025-10-02T03:52:36.000Z</time></trkpt>
        <trkpt lat="28.826873" lon="105.29321"><ele>330</ele><time>2025-10-02T03:52:47.000Z</time></trkpt>
        <trkpt lat="28.826955" lon="105.293259"><ele>329</ele><time>2025-10-02T03:52:56.000Z</time></trkpt>
        <trkpt lat="28.827052" lon="105.293269"><ele>329</ele><time>2025-10-02T03:53:06.000Z</time></trkpt>
        <trkpt lat="28.827141" lon="105.293297"><ele>328</ele><time>2025-10-02T03:53:15.000Z</time></trkpt>
        <trkpt lat="28.82723" lon="105.293329"><ele>327</ele><time>2025-10-02T03:53:26.000Z</time></trkpt>
        <trkpt lat="28.827317" lon="105.293381"><ele>327</ele><time>2025-10-02T03:53:37.000Z</time></trkpt>
        <trkpt lat="28.827412" lon="105.293408"><ele>327</ele><time>2025-10-02T03:53:47.000Z</time></trkpt>
        <trkpt lat="28.827505" lon="105.293413"><ele>326</ele><time>2025-10-02T03:53:57.000Z</time></trkpt>
        <trkpt lat="28.827603" lon="105.293422"><ele>326</ele><time>2025-10-02T03:54:09.000Z</time></trkpt>
        <trkpt lat="28.827692" lon="105.293407"><ele>325</ele><time>2025-10-02T03:54:17.000Z</time></trkpt>
        <trkpt lat="28.827777" lon="105.29337"><ele>325</ele><time>2025-10-02T03:54:26.000Z</time></trkpt>
        <trkpt lat="28.827876" lon="105.293367"><ele>324</ele><time>2025-10-02T03:54:40.000Z</time></trkpt>
        <trkpt lat="28.827945" lon="105.293297"><ele>322</ele><time>2025-10-02T03:55:51.000Z</time></trkpt>
        <trkpt lat="28.828038" lon="105.293266"><ele>321</ele><time>2025-10-02T03:56:00.000Z</time></trkpt>
        <trkpt lat="28.82811" lon="105.293193"><ele>320</ele><time>2025-10-02T03:56:12.000Z</time></trkpt>
        <trkpt lat="28.828194" lon="105.293146"><ele>319</ele><time>2025-10-02T03:56:24.000Z</time></trkpt>
        <trkpt lat="28.828278" lon="105.29309"><ele>319</ele><time>2025-10-02T03:56:38.000Z</time></trkpt>
        <trkpt lat="28.828332" lon="105.293006"><ele>318</ele><time>2025-10-02T03:56:49.000Z</time></trkpt>
        <trkpt lat="28.828415" lon="105.292965"><ele>318</ele><time>2025-10-02T03:56:59.000Z</time></trkpt>
        <trkpt lat="28.828508" lon="105.292936"><ele>318</ele><time>2025-10-02T03:57:10.000Z</time></trkpt>
        <trkpt lat="28.828592" lon="105.292888"><ele>318</ele><time>2025-10-02T03:57:23.000Z</time></trkpt>
        <trkpt lat="28.828675" lon="105.292842"><ele>318</ele><time>2025-10-02T03:57:36.000Z</time></trkpt>
        <trkpt lat="28.828762" lon="105.292804"><ele>318</ele><time>2025-10-02T03:57:46.000Z</time></trkpt>
        <trkpt lat="28.828846" lon="105.292758"><ele>318</ele><time>2025-10-02T03:57:56.000Z</time></trkpt>
        <trkpt lat="28.828928" lon="105.292705"><ele>318</ele><time>2025-10-02T03:58:13.000Z</time></trkpt>
        <trkpt lat="28.828996" lon="105.292625"><ele>320</ele><time>2025-10-02T03:58:25.000Z</time></trkpt>
        <trkpt lat="28.82906" lon="105.292552"><ele>321</ele><time>2025-10-02T03:58:39.000Z</time></trkpt>
        <trkpt lat="28.829119" lon="105.292473"><ele>322</ele><time>2025-10-02T03:58:52.000Z</time></trkpt>
        <trkpt lat="28.829163" lon="105.292383"><ele>322</ele><time>2025-10-02T03:59:07.000Z</time></trkpt>
        <trkpt lat="28.829239" lon="105.292324"><ele>322</ele><time>2025-10-02T03:59:24.000Z</time></trkpt>
        <trkpt lat="28.829325" lon="105.292363"><ele>323</ele><time>2025-10-02T04:00:11.000Z</time></trkpt>
        <trkpt lat="28.829395" lon="105.292429"><ele>324</ele><time>2025-10-02T04:00:25.000Z</time></trkpt>
        <trkpt lat="28.829475" lon="105.292486"><ele>326</ele><time>2025-10-02T04:00:38.000Z</time></trkpt>
        <trkpt lat="28.829567" lon="105.292484"><ele>326</ele><time>2025-10-02T04:00:51.000Z</time></trkpt>
        <trkpt lat="28.829647" lon="105.292425"><ele>326</ele><time>2025-10-02T04:01:03.000Z</time></trkpt>
        <trkpt lat="28.829723" lon="105.292364"><ele>326</ele><time>2025-10-02T04:01:13.000Z</time></trkpt>
        <trkpt lat="28.829802" lon="105.292309"><ele>326</ele><time>2025-10-02T04:01:27.000Z</time></trkpt>
        <trkpt lat="28.829861" lon="105.292228"><ele>327</ele><time>2025-10-02T04:01:46.000Z</time></trkpt>
        <trkpt lat="28.829894" lon="105.292132"><ele>328</ele><time>2025-10-02T04:02:00.000Z</time></trkpt>
        <trkpt lat="28.829935" lon="105.292037"><ele>328</ele><time>2025-10-02T04:02:16.000Z</time></trkpt>
        <trkpt lat="28.829903" lon="105.291937"><ele>328</ele><time>2025-10-02T04:02:27.000Z</time></trkpt>
        <trkpt lat="28.829868" lon="105.29184"><ele>327</ele><time>2025-10-02T04:02:37.000Z</time></trkpt>
        <trkpt lat="28.82984" lon="105.291731"><ele>325</ele><time>2025-10-02T04:02:48.000Z</time></trkpt>
        <trkpt lat="28.829911" lon="105.291657"><ele>325</ele><time>2025-10-02T04:04:28.000Z</time></trkpt>
        <trkpt lat="28.829999" lon="105.291627"><ele>326</ele><time>2025-10-02T04:04:37.000Z</time></trkpt>
        <trkpt lat="28.830093" lon="105.291593"><ele>325</ele><time>2025-10-02T04:04:47.000Z</time></trkpt>
        <trkpt lat="28.830186" lon="105.291585"><ele>324</ele><time>2025-10-02T04:04:56.000Z</time></trkpt>
        <trkpt lat="28.830281" lon="105.291559"><ele>323</ele><time>2025-10-02T04:05:06.000Z</time></trkpt>
        <trkpt lat="28.830364" lon="105.291507"><ele>323</ele><time>2025-10-02T04:05:15.000Z</time></trkpt>
        <trkpt lat="28.830448" lon="105.291455"><ele>323</ele><time>2025-10-02T04:05:23.000Z</time></trkpt>
        <trkpt lat="28.83052" lon="105.291391"><ele>324</ele><time>2025-10-02T04:05:31.000Z</time></trkpt>
        <trkpt lat="28.830574" lon="105.291306"><ele>324</ele><time>2025-10-02T04:05:40.000Z</time></trkpt>
        <trkpt lat="28.830654" lon="105.291243"><ele>325</ele><time>2025-10-02T04:05:52.000Z</time></trkpt>
        <trkpt lat="28.830747" lon="105.291213"><ele>326</ele><time>2025-10-02T04:06:04.000Z</time></trkpt>
        <trkpt lat="28.830838" lon="105.291178"><ele>327</ele><time>2025-10-02T04:06:15.000Z</time></trkpt>
        <trkpt lat="28.830926" lon="105.291152"><ele>329</ele><time>2025-10-02T04:06:26.000Z</time></trkpt>
        <trkpt lat="28.831007" lon="105.2911"><ele>330</ele><time>2025-10-02T04:06:38.000Z</time></trkpt>
        <trkpt lat="28.831098" lon="105.291093"><ele>332</ele><time>2025-10-02T04:06:48.000Z</time></trkpt>
        <trkpt lat="28.831187" lon="105.291066"><ele>333</ele><time>2025-10-02T04:07:02.000Z</time></trkpt>
        <trkpt lat="28.831284" lon="105.291053"><ele>333</ele><time>2025-10-02T04:07:15.000Z</time></trkpt>
        <trkpt lat="28.831376" lon="105.291038"><ele>333</ele><time>2025-10-02T04:07:28.000Z</time></trkpt>
        <trkpt lat="28.831472" lon="105.291024"><ele>334</ele><time>2025-10-02T04:07:40.000Z</time></trkpt>
        <trkpt lat="28.831559" lon="105.290992"><ele>334</ele><time>2025-10-02T04:07:52.000Z</time></trkpt>
        <trkpt lat="28.831653" lon="105.291"><ele>335</ele><time>2025-10-02T04:08:02.000Z</time></trkpt>
        <trkpt lat="28.831745" lon="105.290991"><ele>335</ele><time>2025-10-02T04:08:15.000Z</time></trkpt>
        <trkpt lat="28.831837" lon="105.290997"><ele>334</ele><time>2025-10-02T04:08:27.000Z</time></trkpt>
        <trkpt lat="28.831932" lon="105.291001"><ele>333</ele><time>2025-10-02T04:08:44.000Z</time></trkpt>
        <trkpt lat="28.832029" lon="105.291008"><ele>333</ele><time>2025-10-02T04:09:01.000Z</time></trkpt>
        <trkpt lat="28.832122" lon="105.291034"><ele>332</ele><time>2025-10-02T04:09:12.000Z</time></trkpt>
        <trkpt lat="28.832213" lon="105.291047"><ele>331</ele><time>2025-10-02T04:09:24.000Z</time></trkpt>
        <trkpt lat="28.832304" lon="105.291037"><ele>331</ele><time>2025-10-02T04:09:35.000Z</time></trkpt>
        <trkpt lat="28.832389" lon="105.290985"><ele>332</ele><time>2025-10-02T04:09:48.000Z</time></trkpt>
        <trkpt lat="28.83247" lon="105.290929"><ele>332</ele><time>2025-10-02T04:09:58.000Z</time></trkpt>
        <trkpt lat="28.832563" lon="105.290883"><ele>331</ele><time>2025-10-02T04:10:11.000Z</time></trkpt>
        <trkpt lat="28.83266" lon="105.290857"><ele>331</ele><time>2025-10-02T04:10:22.000Z</time></trkpt>
        <trkpt lat="28.832749" lon="105.290832"><ele>331</ele><time>2025-10-02T04:10:33.000Z</time></trkpt>
        <trkpt lat="28.832838" lon="105.290813"><ele>331</ele><time>2025-10-02T04:10:44.000Z</time></trkpt>
        <trkpt lat="28.832895" lon="105.290729"><ele>328</ele><time>2025-10-02T04:10:57.000Z</time></trkpt>
        <trkpt lat="28.832884" lon="105.290626"><ele>327</ele><time>2025-10-02T04:11:07.000Z</time></trkpt>
        <trkpt lat="28.832864" lon="105.290525"><ele>325</ele><time>2025-10-02T04:11:18.000Z</time></trkpt>
        <trkpt lat="28.83284" lon="105.290418"><ele>324</ele><time>2025-10-02T04:11:29.000Z</time></trkpt>
        <trkpt lat="28.832817" lon="105.290316"><ele>322</ele><time>2025-10-02T04:11:40.000Z</time></trkpt>
        <trkpt lat="28.832785" lon="105.290211"><ele>320</ele><time>2025-10-02T04:11:52.000Z</time></trkpt>
        <trkpt lat="28.832761" lon="105.290105"><ele>319</ele><time>2025-10-02T04:12:04.000Z</time></trkpt>
        <trkpt lat="28.832731" lon="105.290008"><ele>318</ele><time>2025-10-02T04:12:16.000Z</time></trkpt>
        <trkpt lat="28.832683" lon="105.289917"><ele>318</ele><time>2025-10-02T04:12:38.000Z</time></trkpt>
        <trkpt lat="28.832594" lon="105.289892"><ele>318</ele><time>2025-10-02T04:13:01.000Z</time></trkpt>
        <trkpt lat="28.832504" lon="105.289887"><ele>318</ele><time>2025-10-02T04:13:17.000Z</time></trkpt>
        <trkpt lat="28.832413" lon="105.289891"><ele>318</ele><time>2025-10-02T04:14:11.000Z</time></trkpt>
      </trkseg>
  </trk>
</gpx>